<?xml version="1.0" encoding="UTF-8" standalone="no" ?>
<gpx xmlns="http://www.topografix.com/GPX/1/1" xmlns:xsi="http://www.w3.org/2001/XMLSchema-instance" xsi:schemaLocation="http://www.topografix.com/GPX/1/1 http://www.topografix.com/GPX/1/1/gpx.xsd" version="1.1" creator="VisuGPX - https://www.visugpx.com">
  <metadata>
    <name>Course à pied le matin</name>
  </metadata>
  <trk>
    <name><![CDATA[Course à pied le matin_1]]></name>
    <trkseg>
      <trkpt lat="48.86235" lon="7.31801">
        <ele>341.4</ele>
        <time>2023-10-08T08:05:01Z</time>
      </trkpt>
      <trkpt lat="48.86235" lon="7.31779">
        <ele>340.7</ele>
        <time>2023-10-08T08:05:06Z</time>
      </trkpt>
      <trkpt lat="48.86232" lon="7.31764">
        <ele>340.2</ele>
        <time>2023-10-08T08:05:08Z</time>
      </trkpt>
      <trkpt lat="48.86226" lon="7.31751">
        <ele>339.6</ele>
        <time>2023-10-08T08:05:10Z</time>
      </trkpt>
      <trkpt lat="48.86212" lon="7.31727">
        <ele>338.5</ele>
        <time>2023-10-08T08:05:14Z</time>
      </trkpt>
      <trkpt lat="48.86199" lon="7.31703">
        <ele>337.3</ele>
        <time>2023-10-08T08:05:18Z</time>
      </trkpt>
      <trkpt lat="48.86185" lon="7.31682">
        <ele>336.2</ele>
        <time>2023-10-08T08:05:22Z</time>
      </trkpt>
      <trkpt lat="48.86172" lon="7.3166">
        <ele>335.2</ele>
        <time>2023-10-08T08:05:26Z</time>
      </trkpt>
      <trkpt lat="48.8616" lon="7.3164">
        <ele>334.3</ele>
        <time>2023-10-08T08:05:30Z</time>
      </trkpt>
      <trkpt lat="48.86148" lon="7.31619">
        <ele>333.6</ele>
        <time>2023-10-08T08:05:34Z</time>
      </trkpt>
      <trkpt lat="48.86134" lon="7.316">
        <ele>332.9</ele>
        <time>2023-10-08T08:05:38Z</time>
      </trkpt>
      <trkpt lat="48.86122" lon="7.3158">
        <ele>332.1</ele>
        <time>2023-10-08T08:05:42Z</time>
      </trkpt>
      <trkpt lat="48.86108" lon="7.31556">
        <ele>331.2</ele>
        <time>2023-10-08T08:05:47Z</time>
      </trkpt>
      <trkpt lat="48.86101" lon="7.31539">
        <ele>330.5</ele>
        <time>2023-10-08T08:05:50Z</time>
      </trkpt>
      <trkpt lat="48.86089" lon="7.31511">
        <ele>329</ele>
        <time>2023-10-08T08:05:55Z</time>
      </trkpt>
      <trkpt lat="48.86078" lon="7.31487">
        <ele>327.6</ele>
        <time>2023-10-08T08:05:59Z</time>
      </trkpt>
      <trkpt lat="48.86065" lon="7.31465">
        <ele>325.5</ele>
        <time>2023-10-08T08:06:03Z</time>
      </trkpt>
      <trkpt lat="48.86052" lon="7.31444">
        <ele>323.3</ele>
        <time>2023-10-08T08:06:07Z</time>
      </trkpt>
      <trkpt lat="48.86039" lon="7.31417">
        <ele>320.6</ele>
        <time>2023-10-08T08:06:12Z</time>
      </trkpt>
      <trkpt lat="48.86039" lon="7.31402">
        <ele>318.5</ele>
        <time>2023-10-08T08:06:14Z</time>
      </trkpt>
      <trkpt lat="48.86038" lon="7.31385">
        <ele>316.8</ele>
        <time>2023-10-08T08:06:16Z</time>
      </trkpt>
      <trkpt lat="48.86036" lon="7.3137">
        <ele>314.3</ele>
        <time>2023-10-08T08:06:18Z</time>
      </trkpt>
      <trkpt lat="48.8603" lon="7.3135">
        <ele>311.1</ele>
        <time>2023-10-08T08:06:21Z</time>
      </trkpt>
      <trkpt lat="48.8602" lon="7.31326">
        <ele>307.9</ele>
        <time>2023-10-08T08:06:25Z</time>
      </trkpt>
      <trkpt lat="48.86013" lon="7.31319">
        <ele>306.3</ele>
        <time>2023-10-08T08:06:27Z</time>
      </trkpt>
      <trkpt lat="48.86004" lon="7.31323">
        <ele>306.4</ele>
        <time>2023-10-08T08:06:29Z</time>
      </trkpt>
      <trkpt lat="48.85988" lon="7.31339">
        <ele>306.9</ele>
        <time>2023-10-08T08:06:33Z</time>
      </trkpt>
      <trkpt lat="48.85985" lon="7.31342">
        <ele>306.7</ele>
        <time>2023-10-08T08:06:34Z</time>
      </trkpt>
      <trkpt lat="48.85987" lon="7.31335">
        <ele>306.4</ele>
        <time>2023-10-08T08:06:37Z</time>
      </trkpt>
      <trkpt lat="48.86001" lon="7.31314">
        <ele>305.2</ele>
        <time>2023-10-08T08:06:41Z</time>
      </trkpt>
      <trkpt lat="48.86015" lon="7.31293">
        <ele>304</ele>
        <time>2023-10-08T08:06:45Z</time>
      </trkpt>
      <trkpt lat="48.86029" lon="7.31275">
        <ele>302.7</ele>
        <time>2023-10-08T08:06:49Z</time>
      </trkpt>
      <trkpt lat="48.8604" lon="7.31265">
        <ele>301.7</ele>
        <time>2023-10-08T08:06:52Z</time>
      </trkpt>
      <trkpt lat="48.86048" lon="7.31261">
        <ele>301</ele>
        <time>2023-10-08T08:06:54Z</time>
      </trkpt>
      <trkpt lat="48.86065" lon="7.31253">
        <ele>299.5</ele>
        <time>2023-10-08T08:06:58Z</time>
      </trkpt>
      <trkpt lat="48.86079" lon="7.31253">
        <ele>298.9</ele>
        <time>2023-10-08T08:07:01Z</time>
      </trkpt>
      <trkpt lat="48.86088" lon="7.31257">
        <ele>298.6</ele>
        <time>2023-10-08T08:07:03Z</time>
      </trkpt>
      <trkpt lat="48.86103" lon="7.31273">
        <ele>298.3</ele>
        <time>2023-10-08T08:07:08Z</time>
      </trkpt>
      <trkpt lat="48.86106" lon="7.31278">
        <ele>298.3</ele>
        <time>2023-10-08T08:07:10Z</time>
      </trkpt>
      <trkpt lat="48.86111" lon="7.31292">
        <ele>298.3</ele>
        <time>2023-10-08T08:07:14Z</time>
      </trkpt>
      <trkpt lat="48.86121" lon="7.31317">
        <ele>298.5</ele>
        <time>2023-10-08T08:07:20Z</time>
      </trkpt>
      <trkpt lat="48.86128" lon="7.31331">
        <ele>298.6</ele>
        <time>2023-10-08T08:07:23Z</time>
      </trkpt>
      <trkpt lat="48.8614" lon="7.31351">
        <ele>298.7</ele>
        <time>2023-10-08T08:07:27Z</time>
      </trkpt>
      <trkpt lat="48.86154" lon="7.31372">
        <ele>298.8</ele>
        <time>2023-10-08T08:07:31Z</time>
      </trkpt>
      <trkpt lat="48.86169" lon="7.31395">
        <ele>299.2</ele>
        <time>2023-10-08T08:07:36Z</time>
      </trkpt>
      <trkpt lat="48.86171" lon="7.31399">
        <ele>299.4</ele>
        <time>2023-10-08T08:07:37Z</time>
      </trkpt>
      <trkpt lat="48.86175" lon="7.31407">
        <ele>299.5</ele>
        <time>2023-10-08T08:07:39Z</time>
      </trkpt>
      <trkpt lat="48.86187" lon="7.31429">
        <ele>300.4</ele>
        <time>2023-10-08T08:07:45Z</time>
      </trkpt>
      <trkpt lat="48.86198" lon="7.3145">
        <ele>301.4</ele>
        <time>2023-10-08T08:07:49Z</time>
      </trkpt>
      <trkpt lat="48.86213" lon="7.31468">
        <ele>302.6</ele>
        <time>2023-10-08T08:07:54Z</time>
      </trkpt>
      <trkpt lat="48.8623" lon="7.31483">
        <ele>304</ele>
        <time>2023-10-08T08:08:00Z</time>
      </trkpt>
      <trkpt lat="48.86246" lon="7.31468">
        <ele>305.1</ele>
        <time>2023-10-08T08:08:05Z</time>
      </trkpt>
      <trkpt lat="48.86249" lon="7.31441">
        <ele>305.6</ele>
        <time>2023-10-08T08:08:10Z</time>
      </trkpt>
      <trkpt lat="48.86255" lon="7.31411">
        <ele>305.9</ele>
        <time>2023-10-08T08:08:16Z</time>
      </trkpt>
      <trkpt lat="48.86256" lon="7.31383">
        <ele>306.5</ele>
        <time>2023-10-08T08:08:21Z</time>
      </trkpt>
      <trkpt lat="48.86253" lon="7.31351">
        <ele>307.2</ele>
        <time>2023-10-08T08:08:27Z</time>
      </trkpt>
      <trkpt lat="48.86252" lon="7.31317">
        <ele>307.8</ele>
        <time>2023-10-08T08:08:33Z</time>
      </trkpt>
      <trkpt lat="48.8625" lon="7.31286">
        <ele>307.9</ele>
        <time>2023-10-08T08:08:38Z</time>
      </trkpt>
      <trkpt lat="48.8625" lon="7.31254">
        <ele>307.6</ele>
        <time>2023-10-08T08:08:43Z</time>
      </trkpt>
      <trkpt lat="48.86259" lon="7.31232">
        <ele>307.3</ele>
        <time>2023-10-08T08:08:48Z</time>
      </trkpt>
      <trkpt lat="48.86279" lon="7.31227">
        <ele>307.5</ele>
        <time>2023-10-08T08:08:53Z</time>
      </trkpt>
      <trkpt lat="48.863" lon="7.31223">
        <ele>308.2</ele>
        <time>2023-10-08T08:08:58Z</time>
      </trkpt>
      <trkpt lat="48.8632" lon="7.31218">
        <ele>309</ele>
        <time>2023-10-08T08:09:03Z</time>
      </trkpt>
      <trkpt lat="48.86339" lon="7.31213">
        <ele>309.9</ele>
        <time>2023-10-08T08:09:08Z</time>
      </trkpt>
      <trkpt lat="48.86354" lon="7.31191">
        <ele>310.9</ele>
        <time>2023-10-08T08:09:14Z</time>
      </trkpt>
      <trkpt lat="48.86353" lon="7.31179">
        <ele>311.2</ele>
        <time>2023-10-08T08:09:16Z</time>
      </trkpt>
      <trkpt lat="48.86342" lon="7.31152">
        <ele>311.1</ele>
        <time>2023-10-08T08:09:20Z</time>
      </trkpt>
      <trkpt lat="48.86328" lon="7.31134">
        <ele>309.9</ele>
        <time>2023-10-08T08:09:24Z</time>
      </trkpt>
      <trkpt lat="48.8631" lon="7.31111">
        <ele>308.7</ele>
        <time>2023-10-08T08:09:28Z</time>
      </trkpt>
      <trkpt lat="48.86294" lon="7.31093">
        <ele>308.1</ele>
        <time>2023-10-08T08:09:32Z</time>
      </trkpt>
      <trkpt lat="48.86278" lon="7.31076">
        <ele>307.6</ele>
        <time>2023-10-08T08:09:36Z</time>
      </trkpt>
      <trkpt lat="48.8626" lon="7.3106">
        <ele>307.4</ele>
        <time>2023-10-08T08:09:41Z</time>
      </trkpt>
      <trkpt lat="48.86253" lon="7.31055">
        <ele>307.6</ele>
        <time>2023-10-08T08:09:42Z</time>
      </trkpt>
      <trkpt lat="48.86235" lon="7.31047">
        <ele>308.4</ele>
        <time>2023-10-08T08:09:48Z</time>
      </trkpt>
      <trkpt lat="48.86227" lon="7.31045">
        <ele>308.8</ele>
        <time>2023-10-08T08:09:49Z</time>
      </trkpt>
      <trkpt lat="48.86217" lon="7.31036">
        <ele>309.4</ele>
        <time>2023-10-08T08:09:53Z</time>
      </trkpt>
      <trkpt lat="48.86201" lon="7.31019">
        <ele>311</ele>
        <time>2023-10-08T08:09:58Z</time>
      </trkpt>
      <trkpt lat="48.86184" lon="7.31003">
        <ele>313.1</ele>
        <time>2023-10-08T08:10:04Z</time>
      </trkpt>
      <trkpt lat="48.86172" lon="7.30982">
        <ele>314.3</ele>
        <time>2023-10-08T08:10:09Z</time>
      </trkpt>
      <trkpt lat="48.86164" lon="7.30953">
        <ele>314.8</ele>
        <time>2023-10-08T08:10:14Z</time>
      </trkpt>
      <trkpt lat="48.86161" lon="7.30923">
        <ele>315.1</ele>
        <time>2023-10-08T08:10:19Z</time>
      </trkpt>
      <trkpt lat="48.86159" lon="7.3089">
        <ele>315.4</ele>
        <time>2023-10-08T08:10:24Z</time>
      </trkpt>
      <trkpt lat="48.86154" lon="7.3086">
        <ele>316</ele>
        <time>2023-10-08T08:10:29Z</time>
      </trkpt>
      <trkpt lat="48.86149" lon="7.30831">
        <ele>316.1</ele>
        <time>2023-10-08T08:10:34Z</time>
      </trkpt>
      <trkpt lat="48.86158" lon="7.30803">
        <ele>316.5</ele>
        <time>2023-10-08T08:10:39Z</time>
      </trkpt>
      <trkpt lat="48.86173" lon="7.30783">
        <ele>317.8</ele>
        <time>2023-10-08T08:10:44Z</time>
      </trkpt>
      <trkpt lat="48.86184" lon="7.30758">
        <ele>319.2</ele>
        <time>2023-10-08T08:10:49Z</time>
      </trkpt>
      <trkpt lat="48.8619" lon="7.30728">
        <ele>320.8</ele>
        <time>2023-10-08T08:10:54Z</time>
      </trkpt>
      <trkpt lat="48.86194" lon="7.30696">
        <ele>321.9</ele>
        <time>2023-10-08T08:10:59Z</time>
      </trkpt>
      <trkpt lat="48.86198" lon="7.30667">
        <ele>321.8</ele>
        <time>2023-10-08T08:11:04Z</time>
      </trkpt>
      <trkpt lat="48.86204" lon="7.30637">
        <ele>321.5</ele>
        <time>2023-10-08T08:11:09Z</time>
      </trkpt>
      <trkpt lat="48.8621" lon="7.30611">
        <ele>322.5</ele>
        <time>2023-10-08T08:11:13Z</time>
      </trkpt>
      <trkpt lat="48.86217" lon="7.30582">
        <ele>325.6</ele>
        <time>2023-10-08T08:11:19Z</time>
      </trkpt>
      <trkpt lat="48.86227" lon="7.30557">
        <ele>329.5</ele>
        <time>2023-10-08T08:11:26Z</time>
      </trkpt>
      <trkpt lat="48.86234" lon="7.3053">
        <ele>333.8</ele>
        <time>2023-10-08T08:11:35Z</time>
      </trkpt>
      <trkpt lat="48.86243" lon="7.30503">
        <ele>337.6</ele>
        <time>2023-10-08T08:11:43Z</time>
      </trkpt>
      <trkpt lat="48.86253" lon="7.30479">
        <ele>340.9</ele>
        <time>2023-10-08T08:11:50Z</time>
      </trkpt>
      <trkpt lat="48.86261" lon="7.30453">
        <ele>343.5</ele>
        <time>2023-10-08T08:11:56Z</time>
      </trkpt>
      <trkpt lat="48.86267" lon="7.30425">
        <ele>344.7</ele>
        <time>2023-10-08T08:12:02Z</time>
      </trkpt>
      <trkpt lat="48.86267" lon="7.30394">
        <ele>344.8</ele>
        <time>2023-10-08T08:12:08Z</time>
      </trkpt>
      <trkpt lat="48.86261" lon="7.30385">
        <ele>343.5</ele>
        <time>2023-10-08T08:12:11Z</time>
      </trkpt>
      <trkpt lat="48.86243" lon="7.30384">
        <ele>341</ele>
        <time>2023-10-08T08:12:16Z</time>
      </trkpt>
      <trkpt lat="48.86223" lon="7.30389">
        <ele>338.7</ele>
        <time>2023-10-08T08:12:21Z</time>
      </trkpt>
      <trkpt lat="48.86204" lon="7.30398">
        <ele>336.5</ele>
        <time>2023-10-08T08:12:26Z</time>
      </trkpt>
      <trkpt lat="48.86198" lon="7.304">
        <ele>335.8</ele>
        <time>2023-10-08T08:12:27Z</time>
      </trkpt>
      <trkpt lat="48.86178" lon="7.30403">
        <ele>333.3</ele>
        <time>2023-10-08T08:12:35Z</time>
      </trkpt>
      <trkpt lat="48.86159" lon="7.30408">
        <ele>331.2</ele>
        <time>2023-10-08T08:12:42Z</time>
      </trkpt>
      <trkpt lat="48.86142" lon="7.30415">
        <ele>329.5</ele>
        <time>2023-10-08T08:12:49Z</time>
      </trkpt>
      <trkpt lat="48.86123" lon="7.30429">
        <ele>325.4</ele>
        <time>2023-10-08T08:12:56Z</time>
      </trkpt>
      <trkpt lat="48.86104" lon="7.30444">
        <ele>323.7</ele>
        <time>2023-10-08T08:13:02Z</time>
      </trkpt>
      <trkpt lat="48.86088" lon="7.30463">
        <ele>322.4</ele>
        <time>2023-10-08T08:13:08Z</time>
      </trkpt>
      <trkpt lat="48.86079" lon="7.30488">
        <ele>320.9</ele>
        <time>2023-10-08T08:13:13Z</time>
      </trkpt>
      <trkpt lat="48.86072" lon="7.30518">
        <ele>319.1</ele>
        <time>2023-10-08T08:13:18Z</time>
      </trkpt>
      <trkpt lat="48.86064" lon="7.30548">
        <ele>316.4</ele>
        <time>2023-10-08T08:13:23Z</time>
      </trkpt>
      <trkpt lat="48.86056" lon="7.30556">
        <ele>315.1</ele>
        <time>2023-10-08T08:13:26Z</time>
      </trkpt>
      <trkpt lat="48.86051" lon="7.30554">
        <ele>314.4</ele>
        <time>2023-10-08T08:13:28Z</time>
      </trkpt>
      <trkpt lat="48.86036" lon="7.30532">
        <ele>313.6</ele>
        <time>2023-10-08T08:13:34Z</time>
      </trkpt>
      <trkpt lat="48.86025" lon="7.30507">
        <ele>318.4</ele>
        <time>2023-10-08T08:13:40Z</time>
      </trkpt>
      <trkpt lat="48.86028" lon="7.30479">
        <ele>323.6</ele>
        <time>2023-10-08T08:13:50Z</time>
      </trkpt>
      <trkpt lat="48.86033" lon="7.30459">
        <ele>327.4</ele>
        <time>2023-10-08T08:13:57Z</time>
      </trkpt>
      <trkpt lat="48.86047" lon="7.30476">
        <ele>338.6</ele>
        <time>2023-10-08T08:14:10Z</time>
      </trkpt>
      <trkpt lat="48.86048" lon="7.30477">
        <ele>338.7</ele>
        <time>2023-10-08T08:14:11Z</time>
      </trkpt>
      <trkpt lat="48.8605" lon="7.30486">
        <ele>339.6</ele>
        <time>2023-10-08T08:14:16Z</time>
      </trkpt>
      <trkpt lat="48.86053" lon="7.30485">
        <ele>339.9</ele>
        <time>2023-10-08T08:14:18Z</time>
      </trkpt>
      <trkpt lat="48.86056" lon="7.30456">
        <ele>342.5</ele>
        <time>2023-10-08T08:14:29Z</time>
      </trkpt>
      <trkpt lat="48.86059" lon="7.30429">
        <ele>344.5</ele>
        <time>2023-10-08T08:14:40Z</time>
      </trkpt>
      <trkpt lat="48.86049" lon="7.30402">
        <ele>346.7</ele>
        <time>2023-10-08T08:14:46Z</time>
      </trkpt>
      <trkpt lat="48.86039" lon="7.30379">
        <ele>350.1</ele>
        <time>2023-10-08T08:14:51Z</time>
      </trkpt>
      <trkpt lat="48.86028" lon="7.30352">
        <ele>353.6</ele>
        <time>2023-10-08T08:14:56Z</time>
      </trkpt>
      <trkpt lat="48.86016" lon="7.30327">
        <ele>357.7</ele>
        <time>2023-10-08T08:15:01Z</time>
      </trkpt>
      <trkpt lat="48.86008" lon="7.303">
        <ele>362.9</ele>
        <time>2023-10-08T08:15:08Z</time>
      </trkpt>
      <trkpt lat="48.85999" lon="7.30272">
        <ele>366.3</ele>
        <time>2023-10-08T08:15:14Z</time>
      </trkpt>
      <trkpt lat="48.85989" lon="7.30244">
        <ele>367.8</ele>
        <time>2023-10-08T08:15:21Z</time>
      </trkpt>
      <trkpt lat="48.85979" lon="7.30222">
        <ele>368.6</ele>
        <time>2023-10-08T08:15:27Z</time>
      </trkpt>
      <trkpt lat="48.85964" lon="7.302">
        <ele>369.1</ele>
        <time>2023-10-08T08:15:33Z</time>
      </trkpt>
      <trkpt lat="48.85947" lon="7.3018">
        <ele>369.4</ele>
        <time>2023-10-08T08:15:39Z</time>
      </trkpt>
      <trkpt lat="48.85929" lon="7.30164">
        <ele>369.8</ele>
        <time>2023-10-08T08:15:45Z</time>
      </trkpt>
      <trkpt lat="48.85909" lon="7.30151">
        <ele>370</ele>
        <time>2023-10-08T08:15:51Z</time>
      </trkpt>
      <trkpt lat="48.85889" lon="7.30144">
        <ele>369.9</ele>
        <time>2023-10-08T08:15:56Z</time>
      </trkpt>
      <trkpt lat="48.85869" lon="7.30142">
        <ele>369.4</ele>
        <time>2023-10-08T08:16:01Z</time>
      </trkpt>
      <trkpt lat="48.85848" lon="7.30148">
        <ele>368.9</ele>
        <time>2023-10-08T08:16:06Z</time>
      </trkpt>
      <trkpt lat="48.85833" lon="7.30169">
        <ele>368.2</ele>
        <time>2023-10-08T08:16:14Z</time>
      </trkpt>
      <trkpt lat="48.85824" lon="7.30193">
        <ele>367.5</ele>
        <time>2023-10-08T08:16:20Z</time>
      </trkpt>
      <trkpt lat="48.85819" lon="7.30222">
        <ele>366.9</ele>
        <time>2023-10-08T08:16:24Z</time>
      </trkpt>
      <trkpt lat="48.85815" lon="7.30252">
        <ele>366.3</ele>
        <time>2023-10-08T08:16:29Z</time>
      </trkpt>
      <trkpt lat="48.85812" lon="7.30283">
        <ele>366</ele>
        <time>2023-10-08T08:16:34Z</time>
      </trkpt>
      <trkpt lat="48.85807" lon="7.30314">
        <ele>365.7</ele>
        <time>2023-10-08T08:16:39Z</time>
      </trkpt>
      <trkpt lat="48.85802" lon="7.30343">
        <ele>365.4</ele>
        <time>2023-10-08T08:16:44Z</time>
      </trkpt>
      <trkpt lat="48.85789" lon="7.30369">
        <ele>365.3</ele>
        <time>2023-10-08T08:16:49Z</time>
      </trkpt>
      <trkpt lat="48.85776" lon="7.30388">
        <ele>365</ele>
        <time>2023-10-08T08:16:54Z</time>
      </trkpt>
      <trkpt lat="48.85764" lon="7.30413">
        <ele>364.6</ele>
        <time>2023-10-08T08:16:59Z</time>
      </trkpt>
      <trkpt lat="48.85755" lon="7.30442">
        <ele>364.1</ele>
        <time>2023-10-08T08:17:04Z</time>
      </trkpt>
      <trkpt lat="48.85745" lon="7.3047">
        <ele>363.5</ele>
        <time>2023-10-08T08:17:09Z</time>
      </trkpt>
      <trkpt lat="48.85729" lon="7.30491">
        <ele>362.6</ele>
        <time>2023-10-08T08:17:14Z</time>
      </trkpt>
      <trkpt lat="48.8572" lon="7.30518">
        <ele>361.6</ele>
        <time>2023-10-08T08:17:19Z</time>
      </trkpt>
      <trkpt lat="48.85714" lon="7.30547">
        <ele>360.3</ele>
        <time>2023-10-08T08:17:24Z</time>
      </trkpt>
      <trkpt lat="48.85705" lon="7.30574">
        <ele>359.3</ele>
        <time>2023-10-08T08:17:29Z</time>
      </trkpt>
      <trkpt lat="48.85697" lon="7.30576">
        <ele>358.9</ele>
        <time>2023-10-08T08:17:30Z</time>
      </trkpt>
      <trkpt lat="48.85677" lon="7.30567">
        <ele>357.6</ele>
        <time>2023-10-08T08:17:36Z</time>
      </trkpt>
      <trkpt lat="48.85661" lon="7.30558">
        <ele>356.7</ele>
        <time>2023-10-08T08:17:40Z</time>
      </trkpt>
      <trkpt lat="48.85642" lon="7.30542">
        <ele>356</ele>
        <time>2023-10-08T08:17:45Z</time>
      </trkpt>
      <trkpt lat="48.85635" lon="7.30533">
        <ele>355.6</ele>
        <time>2023-10-08T08:17:46Z</time>
      </trkpt>
      <trkpt lat="48.85622" lon="7.30516">
        <ele>354.7</ele>
        <time>2023-10-08T08:17:51Z</time>
      </trkpt>
      <trkpt lat="48.85608" lon="7.30496">
        <ele>353.8</ele>
        <time>2023-10-08T08:17:55Z</time>
      </trkpt>
      <trkpt lat="48.85595" lon="7.30471">
        <ele>353.1</ele>
        <time>2023-10-08T08:18:00Z</time>
      </trkpt>
      <trkpt lat="48.85586" lon="7.30443">
        <ele>352.5</ele>
        <time>2023-10-08T08:18:05Z</time>
      </trkpt>
      <trkpt lat="48.85582" lon="7.30425">
        <ele>352.1</ele>
        <time>2023-10-08T08:18:08Z</time>
      </trkpt>
      <trkpt lat="48.85581" lon="7.30395">
        <ele>351.8</ele>
        <time>2023-10-08T08:18:13Z</time>
      </trkpt>
      <trkpt lat="48.8558" lon="7.30364">
        <ele>351.7</ele>
        <time>2023-10-08T08:18:18Z</time>
      </trkpt>
      <trkpt lat="48.85579" lon="7.30353">
        <ele>351.9</ele>
        <time>2023-10-08T08:18:19Z</time>
      </trkpt>
      <trkpt lat="48.85577" lon="7.30348">
        <ele>352</ele>
        <time>2023-10-08T08:18:21Z</time>
      </trkpt>
      <trkpt lat="48.85575" lon="7.3032">
        <ele>352.2</ele>
        <time>2023-10-08T08:18:26Z</time>
      </trkpt>
      <trkpt lat="48.85575" lon="7.30315">
        <ele>352.2</ele>
        <time>2023-10-08T08:18:27Z</time>
      </trkpt>
      <trkpt lat="48.85576" lon="7.30306">
        <ele>352.2</ele>
        <time>2023-10-08T08:18:29Z</time>
      </trkpt>
      <trkpt lat="48.8558" lon="7.30277">
        <ele>351.9</ele>
        <time>2023-10-08T08:18:34Z</time>
      </trkpt>
      <trkpt lat="48.85584" lon="7.30246">
        <ele>351.2</ele>
        <time>2023-10-08T08:18:39Z</time>
      </trkpt>
      <trkpt lat="48.85585" lon="7.3024">
        <ele>351</ele>
        <time>2023-10-08T08:18:40Z</time>
      </trkpt>
      <trkpt lat="48.85586" lon="7.30208">
        <ele>350.3</ele>
        <time>2023-10-08T08:18:45Z</time>
      </trkpt>
      <trkpt lat="48.85587" lon="7.30176">
        <ele>350.2</ele>
        <time>2023-10-08T08:18:50Z</time>
      </trkpt>
      <trkpt lat="48.85588" lon="7.30145">
        <ele>350.2</ele>
        <time>2023-10-08T08:18:55Z</time>
      </trkpt>
      <trkpt lat="48.85594" lon="7.30115">
        <ele>350.2</ele>
        <time>2023-10-08T08:19:00Z</time>
      </trkpt>
      <trkpt lat="48.85599" lon="7.30087">
        <ele>350.2</ele>
        <time>2023-10-08T08:19:05Z</time>
      </trkpt>
      <trkpt lat="48.85602" lon="7.30058">
        <ele>350.9</ele>
        <time>2023-10-08T08:19:10Z</time>
      </trkpt>
      <trkpt lat="48.85605" lon="7.30034">
        <ele>351.2</ele>
        <time>2023-10-08T08:19:15Z</time>
      </trkpt>
      <trkpt lat="48.85612" lon="7.30009">
        <ele>343.6</ele>
        <time>2023-10-08T08:19:20Z</time>
      </trkpt>
      <trkpt lat="48.85614" lon="7.29977">
        <ele>339</ele>
        <time>2023-10-08T08:19:26Z</time>
      </trkpt>
      <trkpt lat="48.85616" lon="7.2995">
        <ele>339.7</ele>
        <time>2023-10-08T08:19:31Z</time>
      </trkpt>
      <trkpt lat="48.85618" lon="7.29921">
        <ele>340.4</ele>
        <time>2023-10-08T08:19:36Z</time>
      </trkpt>
      <trkpt lat="48.85612" lon="7.29888">
        <ele>341.2</ele>
        <time>2023-10-08T08:19:41Z</time>
      </trkpt>
      <trkpt lat="48.85606" lon="7.29857">
        <ele>343</ele>
        <time>2023-10-08T08:19:46Z</time>
      </trkpt>
      <trkpt lat="48.85596" lon="7.29831">
        <ele>347.7</ele>
        <time>2023-10-08T08:19:51Z</time>
      </trkpt>
      <trkpt lat="48.85588" lon="7.298">
        <ele>352.6</ele>
        <time>2023-10-08T08:19:56Z</time>
      </trkpt>
      <trkpt lat="48.85587" lon="7.2979">
        <ele>354.4</ele>
        <time>2023-10-08T08:19:58Z</time>
      </trkpt>
      <trkpt lat="48.8558" lon="7.29763">
        <ele>354.6</ele>
        <time>2023-10-08T08:20:04Z</time>
      </trkpt>
      <trkpt lat="48.8557" lon="7.29738">
        <ele>352.3</ele>
        <time>2023-10-08T08:20:10Z</time>
      </trkpt>
      <trkpt lat="48.8556" lon="7.29714">
        <ele>350.8</ele>
        <time>2023-10-08T08:20:16Z</time>
      </trkpt>
      <trkpt lat="48.85552" lon="7.29686">
        <ele>349.5</ele>
        <time>2023-10-08T08:20:23Z</time>
      </trkpt>
      <trkpt lat="48.85547" lon="7.29683">
        <ele>349.2</ele>
        <time>2023-10-08T08:20:24Z</time>
      </trkpt>
      <trkpt lat="48.85529" lon="7.29685">
        <ele>348.3</ele>
        <time>2023-10-08T08:20:31Z</time>
      </trkpt>
      <trkpt lat="48.85509" lon="7.2969">
        <ele>347.7</ele>
        <time>2023-10-08T08:20:36Z</time>
      </trkpt>
      <trkpt lat="48.85491" lon="7.29694">
        <ele>348.1</ele>
        <time>2023-10-08T08:20:41Z</time>
      </trkpt>
      <trkpt lat="48.85471" lon="7.297">
        <ele>348.9</ele>
        <time>2023-10-08T08:20:47Z</time>
      </trkpt>
      <trkpt lat="48.85453" lon="7.29706">
        <ele>349.1</ele>
        <time>2023-10-08T08:20:52Z</time>
      </trkpt>
      <trkpt lat="48.85433" lon="7.2971">
        <ele>349.1</ele>
        <time>2023-10-08T08:20:57Z</time>
      </trkpt>
      <trkpt lat="48.85415" lon="7.29721">
        <ele>349.2</ele>
        <time>2023-10-08T08:21:03Z</time>
      </trkpt>
      <trkpt lat="48.85397" lon="7.29737">
        <ele>349.5</ele>
        <time>2023-10-08T08:21:09Z</time>
      </trkpt>
      <trkpt lat="48.85379" lon="7.29752">
        <ele>349.9</ele>
        <time>2023-10-08T08:21:15Z</time>
      </trkpt>
      <trkpt lat="48.85363" lon="7.29768">
        <ele>350.2</ele>
        <time>2023-10-08T08:21:21Z</time>
      </trkpt>
      <trkpt lat="48.85348" lon="7.29785">
        <ele>350.4</ele>
        <time>2023-10-08T08:21:26Z</time>
      </trkpt>
      <trkpt lat="48.85332" lon="7.29806">
        <ele>350.6</ele>
        <time>2023-10-08T08:21:31Z</time>
      </trkpt>
      <trkpt lat="48.85314" lon="7.29825">
        <ele>350.9</ele>
        <time>2023-10-08T08:21:36Z</time>
      </trkpt>
      <trkpt lat="48.85299" lon="7.2984">
        <ele>351</ele>
        <time>2023-10-08T08:21:40Z</time>
      </trkpt>
      <trkpt lat="48.85281" lon="7.29857">
        <ele>351</ele>
        <time>2023-10-08T08:21:46Z</time>
      </trkpt>
      <trkpt lat="48.85271" lon="7.2988">
        <ele>351.2</ele>
        <time>2023-10-08T08:21:51Z</time>
      </trkpt>
      <trkpt lat="48.85263" lon="7.29909">
        <ele>351.5</ele>
        <time>2023-10-08T08:21:56Z</time>
      </trkpt>
      <trkpt lat="48.85254" lon="7.29938">
        <ele>351.5</ele>
        <time>2023-10-08T08:22:01Z</time>
      </trkpt>
      <trkpt lat="48.85243" lon="7.29966">
        <ele>351.6</ele>
        <time>2023-10-08T08:22:06Z</time>
      </trkpt>
      <trkpt lat="48.85237" lon="7.29972">
        <ele>351.7</ele>
        <time>2023-10-08T08:22:07Z</time>
      </trkpt>
      <trkpt lat="48.85219" lon="7.29965">
        <ele>352</ele>
        <time>2023-10-08T08:22:13Z</time>
      </trkpt>
      <trkpt lat="48.85201" lon="7.29952">
        <ele>352.2</ele>
        <time>2023-10-08T08:22:18Z</time>
      </trkpt>
      <trkpt lat="48.85184" lon="7.29938">
        <ele>352.3</ele>
        <time>2023-10-08T08:22:23Z</time>
      </trkpt>
      <trkpt lat="48.85165" lon="7.29926">
        <ele>352.2</ele>
        <time>2023-10-08T08:22:28Z</time>
      </trkpt>
      <trkpt lat="48.85147" lon="7.29936">
        <ele>350.9</ele>
        <time>2023-10-08T08:22:33Z</time>
      </trkpt>
      <trkpt lat="48.8513" lon="7.29953">
        <ele>349.4</ele>
        <time>2023-10-08T08:22:38Z</time>
      </trkpt>
      <trkpt lat="48.85109" lon="7.29958">
        <ele>347.8</ele>
        <time>2023-10-08T08:22:43Z</time>
      </trkpt>
      <trkpt lat="48.8509" lon="7.29963">
        <ele>346.5</ele>
        <time>2023-10-08T08:22:47Z</time>
      </trkpt>
      <trkpt lat="48.8507" lon="7.29975">
        <ele>345.4</ele>
        <time>2023-10-08T08:22:52Z</time>
      </trkpt>
      <trkpt lat="48.8506" lon="7.29984">
        <ele>345</ele>
        <time>2023-10-08T08:22:55Z</time>
      </trkpt>
      <trkpt lat="48.85044" lon="7.30002">
        <ele>344.4</ele>
        <time>2023-10-08T08:23:00Z</time>
      </trkpt>
      <trkpt lat="48.85031" lon="7.30022">
        <ele>343.5</ele>
        <time>2023-10-08T08:23:05Z</time>
      </trkpt>
      <trkpt lat="48.85016" lon="7.30045">
        <ele>342.5</ele>
        <time>2023-10-08T08:23:10Z</time>
      </trkpt>
      <trkpt lat="48.85002" lon="7.30067">
        <ele>341.2</ele>
        <time>2023-10-08T08:23:15Z</time>
      </trkpt>
      <trkpt lat="48.84988" lon="7.30086">
        <ele>340</ele>
        <time>2023-10-08T08:23:20Z</time>
      </trkpt>
      <trkpt lat="48.84976" lon="7.30108">
        <ele>338.9</ele>
        <time>2023-10-08T08:23:24Z</time>
      </trkpt>
      <trkpt lat="48.84964" lon="7.30128">
        <ele>338.1</ele>
        <time>2023-10-08T08:23:29Z</time>
      </trkpt>
      <trkpt lat="48.84952" lon="7.30151">
        <ele>337.9</ele>
        <time>2023-10-08T08:23:35Z</time>
      </trkpt>
      <trkpt lat="48.8494" lon="7.30174">
        <ele>338.6</ele>
        <time>2023-10-08T08:23:41Z</time>
      </trkpt>
      <trkpt lat="48.8492" lon="7.30167">
        <ele>335.5</ele>
        <time>2023-10-08T08:23:49Z</time>
      </trkpt>
      <trkpt lat="48.84903" lon="7.30155">
        <ele>332.2</ele>
        <time>2023-10-08T08:23:53Z</time>
      </trkpt>
      <trkpt lat="48.84893" lon="7.30147">
        <ele>330.2</ele>
        <time>2023-10-08T08:23:56Z</time>
      </trkpt>
      <trkpt lat="48.84888" lon="7.30129">
        <ele>328</ele>
        <time>2023-10-08T08:24:01Z</time>
      </trkpt>
      <trkpt lat="48.84903" lon="7.30114">
        <ele>325</ele>
        <time>2023-10-08T08:24:06Z</time>
      </trkpt>
      <trkpt lat="48.8492" lon="7.301">
        <ele>322.2</ele>
        <time>2023-10-08T08:24:11Z</time>
      </trkpt>
      <trkpt lat="48.84922" lon="7.30092">
        <ele>321.1</ele>
        <time>2023-10-08T08:24:12Z</time>
      </trkpt>
      <trkpt lat="48.8492" lon="7.30089">
        <ele>319.8</ele>
        <time>2023-10-08T08:24:14Z</time>
      </trkpt>
      <trkpt lat="48.84902" lon="7.30086">
        <ele>316.7</ele>
        <time>2023-10-08T08:24:19Z</time>
      </trkpt>
      <trkpt lat="48.84884" lon="7.30098">
        <ele>312.8</ele>
        <time>2023-10-08T08:24:24Z</time>
      </trkpt>
      <trkpt lat="48.84872" lon="7.30124">
        <ele>312.2</ele>
        <time>2023-10-08T08:24:29Z</time>
      </trkpt>
      <trkpt lat="48.84867" lon="7.30151">
        <ele>311.4</ele>
        <time>2023-10-08T08:24:34Z</time>
      </trkpt>
      <trkpt lat="48.84857" lon="7.30175">
        <ele>309.7</ele>
        <time>2023-10-08T08:24:39Z</time>
      </trkpt>
      <trkpt lat="48.84851" lon="7.30207">
        <ele>307.9</ele>
        <time>2023-10-08T08:24:44Z</time>
      </trkpt>
      <trkpt lat="48.84846" lon="7.30237">
        <ele>306.8</ele>
        <time>2023-10-08T08:24:49Z</time>
      </trkpt>
      <trkpt lat="48.84841" lon="7.30265">
        <ele>305.8</ele>
        <time>2023-10-08T08:24:54Z</time>
      </trkpt>
      <trkpt lat="48.84834" lon="7.30295">
        <ele>304.3</ele>
        <time>2023-10-08T08:24:59Z</time>
      </trkpt>
      <trkpt lat="48.84831" lon="7.30325">
        <ele>303.1</ele>
        <time>2023-10-08T08:25:05Z</time>
      </trkpt>
      <trkpt lat="48.84832" lon="7.30356">
        <ele>301.6</ele>
        <time>2023-10-08T08:25:11Z</time>
      </trkpt>
      <trkpt lat="48.84829" lon="7.30384">
        <ele>300</ele>
        <time>2023-10-08T08:25:16Z</time>
      </trkpt>
      <trkpt lat="48.84829" lon="7.30413">
        <ele>298.4</ele>
        <time>2023-10-08T08:25:21Z</time>
      </trkpt>
      <trkpt lat="48.84824" lon="7.30445">
        <ele>296.4</ele>
        <time>2023-10-08T08:25:26Z</time>
      </trkpt>
      <trkpt lat="48.84826" lon="7.3048">
        <ele>294.2</ele>
        <time>2023-10-08T08:25:31Z</time>
      </trkpt>
      <trkpt lat="48.84829" lon="7.30511">
        <ele>292.2</ele>
        <time>2023-10-08T08:25:36Z</time>
      </trkpt>
      <trkpt lat="48.84833" lon="7.30539">
        <ele>290.4</ele>
        <time>2023-10-08T08:25:41Z</time>
      </trkpt>
      <trkpt lat="48.84836" lon="7.3057">
        <ele>288</ele>
        <time>2023-10-08T08:25:46Z</time>
      </trkpt>
      <trkpt lat="48.84843" lon="7.30601">
        <ele>285.8</ele>
        <time>2023-10-08T08:25:51Z</time>
      </trkpt>
      <trkpt lat="48.84856" lon="7.30628">
        <ele>282.9</ele>
        <time>2023-10-08T08:25:56Z</time>
      </trkpt>
      <trkpt lat="48.84873" lon="7.30645">
        <ele>281.7</ele>
        <time>2023-10-08T08:26:01Z</time>
      </trkpt>
      <trkpt lat="48.84894" lon="7.30654">
        <ele>280.1</ele>
        <time>2023-10-08T08:26:06Z</time>
      </trkpt>
      <trkpt lat="48.84913" lon="7.30663">
        <ele>278.4</ele>
        <time>2023-10-08T08:26:11Z</time>
      </trkpt>
      <trkpt lat="48.84934" lon="7.30667">
        <ele>276.7</ele>
        <time>2023-10-08T08:26:16Z</time>
      </trkpt>
      <trkpt lat="48.84939" lon="7.30667">
        <ele>276.4</ele>
        <time>2023-10-08T08:26:17Z</time>
      </trkpt>
      <trkpt lat="48.84946" lon="7.30663">
        <ele>275.7</ele>
        <time>2023-10-08T08:26:19Z</time>
      </trkpt>
      <trkpt lat="48.84967" lon="7.3065">
        <ele>273.8</ele>
        <time>2023-10-08T08:26:24Z</time>
      </trkpt>
      <trkpt lat="48.84987" lon="7.30649">
        <ele>272.5</ele>
        <time>2023-10-08T08:26:29Z</time>
      </trkpt>
      <trkpt lat="48.84995" lon="7.30648">
        <ele>272</ele>
        <time>2023-10-08T08:26:31Z</time>
      </trkpt>
      <trkpt lat="48.85013" lon="7.30648">
        <ele>271.1</ele>
        <time>2023-10-08T08:26:35Z</time>
      </trkpt>
      <trkpt lat="48.85035" lon="7.30646">
        <ele>270</ele>
        <time>2023-10-08T08:26:40Z</time>
      </trkpt>
      <trkpt lat="48.85039" lon="7.30646">
        <ele>269.8</ele>
        <time>2023-10-08T08:26:41Z</time>
      </trkpt>
      <trkpt lat="48.85058" lon="7.3065">
        <ele>269.2</ele>
        <time>2023-10-08T08:26:46Z</time>
      </trkpt>
      <trkpt lat="48.85078" lon="7.30649">
        <ele>267.8</ele>
        <time>2023-10-08T08:26:52Z</time>
      </trkpt>
      <trkpt lat="48.85087" lon="7.30649">
        <ele>267</ele>
        <time>2023-10-08T08:26:55Z</time>
      </trkpt>
      <trkpt lat="48.85108" lon="7.30658">
        <ele>264.8</ele>
        <time>2023-10-08T08:27:02Z</time>
      </trkpt>
      <trkpt lat="48.85127" lon="7.30668">
        <ele>262.8</ele>
        <time>2023-10-08T08:27:07Z</time>
      </trkpt>
      <trkpt lat="48.85148" lon="7.30659">
        <ele>260.4</ele>
        <time>2023-10-08T08:27:12Z</time>
      </trkpt>
      <trkpt lat="48.85167" lon="7.30656">
        <ele>257.9</ele>
        <time>2023-10-08T08:27:17Z</time>
      </trkpt>
      <trkpt lat="48.85182" lon="7.30676">
        <ele>255.6</ele>
        <time>2023-10-08T08:27:22Z</time>
      </trkpt>
      <trkpt lat="48.85199" lon="7.30692">
        <ele>253.6</ele>
        <time>2023-10-08T08:27:26Z</time>
      </trkpt>
      <trkpt lat="48.85217" lon="7.30706">
        <ele>251.8</ele>
        <time>2023-10-08T08:27:31Z</time>
      </trkpt>
      <trkpt lat="48.85235" lon="7.30717">
        <ele>250.5</ele>
        <time>2023-10-08T08:27:36Z</time>
      </trkpt>
      <trkpt lat="48.85255" lon="7.30727">
        <ele>249.6</ele>
        <time>2023-10-08T08:27:41Z</time>
      </trkpt>
      <trkpt lat="48.85271" lon="7.30744">
        <ele>248.4</ele>
        <time>2023-10-08T08:27:46Z</time>
      </trkpt>
      <trkpt lat="48.85288" lon="7.30763">
        <ele>244.9</ele>
        <time>2023-10-08T08:27:51Z</time>
      </trkpt>
      <trkpt lat="48.85298" lon="7.3078">
        <ele>241.8</ele>
        <time>2023-10-08T08:27:54Z</time>
      </trkpt>
      <trkpt lat="48.85298" lon="7.30794">
        <ele>241.4</ele>
        <time>2023-10-08T08:27:56Z</time>
      </trkpt>
      <trkpt lat="48.85299" lon="7.30827">
        <ele>241.1</ele>
        <time>2023-10-08T08:28:01Z</time>
      </trkpt>
      <trkpt lat="48.85303" lon="7.30858">
        <ele>241.7</ele>
        <time>2023-10-08T08:28:07Z</time>
      </trkpt>
      <trkpt lat="48.85318" lon="7.30877">
        <ele>242.9</ele>
        <time>2023-10-08T08:28:13Z</time>
      </trkpt>
      <trkpt lat="48.85335" lon="7.30885">
        <ele>243.9</ele>
        <time>2023-10-08T08:28:18Z</time>
      </trkpt>
      <trkpt lat="48.85356" lon="7.30885">
        <ele>245.7</ele>
        <time>2023-10-08T08:28:24Z</time>
      </trkpt>
      <trkpt lat="48.85374" lon="7.30894">
        <ele>247.6</ele>
        <time>2023-10-08T08:28:31Z</time>
      </trkpt>
      <trkpt lat="48.8539" lon="7.30914">
        <ele>249.6</ele>
        <time>2023-10-08T08:28:38Z</time>
      </trkpt>
      <trkpt lat="48.85403" lon="7.30932">
        <ele>251.6</ele>
        <time>2023-10-08T08:28:43Z</time>
      </trkpt>
      <trkpt lat="48.85418" lon="7.30952">
        <ele>253.6</ele>
        <time>2023-10-08T08:28:49Z</time>
      </trkpt>
      <trkpt lat="48.85431" lon="7.30973">
        <ele>255.6</ele>
        <time>2023-10-08T08:28:55Z</time>
      </trkpt>
      <trkpt lat="48.85441" lon="7.30998">
        <ele>257.7</ele>
        <time>2023-10-08T08:29:02Z</time>
      </trkpt>
      <trkpt lat="48.85444" lon="7.3103">
        <ele>260.2</ele>
        <time>2023-10-08T08:29:08Z</time>
      </trkpt>
      <trkpt lat="48.85448" lon="7.31058">
        <ele>262.7</ele>
        <time>2023-10-08T08:29:14Z</time>
      </trkpt>
      <trkpt lat="48.85456" lon="7.31085">
        <ele>265.2</ele>
        <time>2023-10-08T08:29:20Z</time>
      </trkpt>
      <trkpt lat="48.85465" lon="7.31113">
        <ele>268.1</ele>
        <time>2023-10-08T08:29:27Z</time>
      </trkpt>
      <trkpt lat="48.85473" lon="7.31139">
        <ele>271.5</ele>
        <time>2023-10-08T08:29:34Z</time>
      </trkpt>
      <trkpt lat="48.85479" lon="7.31168">
        <ele>274.6</ele>
        <time>2023-10-08T08:29:42Z</time>
      </trkpt>
      <trkpt lat="48.85473" lon="7.31194">
        <ele>277.1</ele>
        <time>2023-10-08T08:29:48Z</time>
      </trkpt>
      <trkpt lat="48.8547" lon="7.31224">
        <ele>279.6</ele>
        <time>2023-10-08T08:29:54Z</time>
      </trkpt>
      <trkpt lat="48.85471" lon="7.31253">
        <ele>282</ele>
        <time>2023-10-08T08:30:00Z</time>
      </trkpt>
      <trkpt lat="48.85472" lon="7.31284">
        <ele>284.8</ele>
        <time>2023-10-08T08:30:07Z</time>
      </trkpt>
      <trkpt lat="48.85466" lon="7.31312">
        <ele>287.6</ele>
        <time>2023-10-08T08:30:14Z</time>
      </trkpt>
      <trkpt lat="48.85463" lon="7.31342">
        <ele>291.2</ele>
        <time>2023-10-08T08:30:23Z</time>
      </trkpt>
      <trkpt lat="48.8546" lon="7.31372">
        <ele>295.1</ele>
        <time>2023-10-08T08:30:33Z</time>
      </trkpt>
      <trkpt lat="48.85453" lon="7.31399">
        <ele>298.8</ele>
        <time>2023-10-08T08:30:43Z</time>
      </trkpt>
      <trkpt lat="48.85447" lon="7.31426">
        <ele>301.7</ele>
        <time>2023-10-08T08:30:52Z</time>
      </trkpt>
      <trkpt lat="48.85443" lon="7.31455">
        <ele>303.7</ele>
        <time>2023-10-08T08:31:00Z</time>
      </trkpt>
      <trkpt lat="48.85439" lon="7.31485">
        <ele>305.4</ele>
        <time>2023-10-08T08:31:08Z</time>
      </trkpt>
      <trkpt lat="48.85432" lon="7.31511">
        <ele>307.5</ele>
        <time>2023-10-08T08:31:13Z</time>
      </trkpt>
      <trkpt lat="48.8543" lon="7.31541">
        <ele>310.3</ele>
        <time>2023-10-08T08:31:20Z</time>
      </trkpt>
      <trkpt lat="48.85427" lon="7.3157">
        <ele>312.8</ele>
        <time>2023-10-08T08:31:27Z</time>
      </trkpt>
      <trkpt lat="48.8543" lon="7.31599">
        <ele>315.3</ele>
        <time>2023-10-08T08:31:34Z</time>
      </trkpt>
      <trkpt lat="48.85432" lon="7.3163">
        <ele>318.2</ele>
        <time>2023-10-08T08:31:41Z</time>
      </trkpt>
      <trkpt lat="48.8543" lon="7.31661">
        <ele>321.3</ele>
        <time>2023-10-08T08:31:49Z</time>
      </trkpt>
      <trkpt lat="48.85437" lon="7.31691">
        <ele>324.8</ele>
        <time>2023-10-08T08:31:57Z</time>
      </trkpt>
      <trkpt lat="48.85442" lon="7.31721">
        <ele>327.5</ele>
        <time>2023-10-08T08:32:04Z</time>
      </trkpt>
      <trkpt lat="48.85451" lon="7.31752">
        <ele>330.2</ele>
        <time>2023-10-08T08:32:11Z</time>
      </trkpt>
      <trkpt lat="48.85454" lon="7.31776">
        <ele>332.3</ele>
        <time>2023-10-08T08:32:18Z</time>
      </trkpt>
      <trkpt lat="48.85443" lon="7.31752">
        <ele>333.1</ele>
        <time>2023-10-08T08:32:28Z</time>
      </trkpt>
      <trkpt lat="48.85438" lon="7.31726">
        <ele>331.6</ele>
        <time>2023-10-08T08:32:33Z</time>
      </trkpt>
      <trkpt lat="48.85431" lon="7.31697">
        <ele>329.7</ele>
        <time>2023-10-08T08:32:38Z</time>
      </trkpt>
      <trkpt lat="48.85426" lon="7.31665">
        <ele>327.5</ele>
        <time>2023-10-08T08:32:44Z</time>
      </trkpt>
      <trkpt lat="48.85422" lon="7.31635">
        <ele>325.2</ele>
        <time>2023-10-08T08:32:49Z</time>
      </trkpt>
      <trkpt lat="48.8542" lon="7.31608">
        <ele>323.1</ele>
        <time>2023-10-08T08:32:53Z</time>
      </trkpt>
      <trkpt lat="48.85416" lon="7.31577">
        <ele>320.7</ele>
        <time>2023-10-08T08:32:58Z</time>
      </trkpt>
      <trkpt lat="48.85412" lon="7.31548">
        <ele>319.1</ele>
        <time>2023-10-08T08:33:04Z</time>
      </trkpt>
      <trkpt lat="48.85407" lon="7.31521">
        <ele>318.3</ele>
        <time>2023-10-08T08:33:08Z</time>
      </trkpt>
      <trkpt lat="48.85407" lon="7.31488">
        <ele>317.6</ele>
        <time>2023-10-08T08:33:13Z</time>
      </trkpt>
      <trkpt lat="48.8541" lon="7.31461">
        <ele>316.9</ele>
        <time>2023-10-08T08:33:17Z</time>
      </trkpt>
      <trkpt lat="48.85418" lon="7.31433">
        <ele>315.8</ele>
        <time>2023-10-08T08:33:21Z</time>
      </trkpt>
      <trkpt lat="48.85428" lon="7.31402">
        <ele>314.5</ele>
        <time>2023-10-08T08:33:26Z</time>
      </trkpt>
      <trkpt lat="48.85431" lon="7.3137">
        <ele>313.4</ele>
        <time>2023-10-08T08:33:31Z</time>
      </trkpt>
      <trkpt lat="48.85431" lon="7.31341">
        <ele>312.4</ele>
        <time>2023-10-08T08:33:36Z</time>
      </trkpt>
      <trkpt lat="48.85426" lon="7.31309">
        <ele>310.8</ele>
        <time>2023-10-08T08:33:42Z</time>
      </trkpt>
      <trkpt lat="48.85422" lon="7.31278">
        <ele>309.5</ele>
        <time>2023-10-08T08:33:47Z</time>
      </trkpt>
      <trkpt lat="48.85416" lon="7.31248">
        <ele>308.4</ele>
        <time>2023-10-08T08:33:52Z</time>
      </trkpt>
      <trkpt lat="48.85407" lon="7.31217">
        <ele>307.1</ele>
        <time>2023-10-08T08:33:57Z</time>
      </trkpt>
      <trkpt lat="48.85394" lon="7.31195">
        <ele>306.4</ele>
        <time>2023-10-08T08:34:01Z</time>
      </trkpt>
      <trkpt lat="48.8538" lon="7.31176">
        <ele>305.7</ele>
        <time>2023-10-08T08:34:06Z</time>
      </trkpt>
      <trkpt lat="48.85364" lon="7.31161">
        <ele>304.9</ele>
        <time>2023-10-08T08:34:12Z</time>
      </trkpt>
      <trkpt lat="48.85346" lon="7.31158">
        <ele>303.7</ele>
        <time>2023-10-08T08:34:18Z</time>
      </trkpt>
      <trkpt lat="48.85328" lon="7.31169">
        <ele>302.3</ele>
        <time>2023-10-08T08:34:24Z</time>
      </trkpt>
      <trkpt lat="48.85312" lon="7.31184">
        <ele>301.1</ele>
        <time>2023-10-08T08:34:30Z</time>
      </trkpt>
      <trkpt lat="48.85292" lon="7.31192">
        <ele>299.9</ele>
        <time>2023-10-08T08:34:36Z</time>
      </trkpt>
      <trkpt lat="48.85289" lon="7.31191">
        <ele>299.6</ele>
        <time>2023-10-08T08:34:37Z</time>
      </trkpt>
      <trkpt lat="48.85271" lon="7.31186">
        <ele>298.3</ele>
        <time>2023-10-08T08:34:41Z</time>
      </trkpt>
      <trkpt lat="48.85256" lon="7.31166">
        <ele>296.4</ele>
        <time>2023-10-08T08:34:46Z</time>
      </trkpt>
      <trkpt lat="48.85244" lon="7.3114">
        <ele>294.4</ele>
        <time>2023-10-08T08:34:52Z</time>
      </trkpt>
      <trkpt lat="48.85234" lon="7.31115">
        <ele>292.4</ele>
        <time>2023-10-08T08:34:57Z</time>
      </trkpt>
      <trkpt lat="48.85226" lon="7.31085">
        <ele>290.8</ele>
        <time>2023-10-08T08:35:03Z</time>
      </trkpt>
      <trkpt lat="48.85211" lon="7.31059">
        <ele>289</ele>
        <time>2023-10-08T08:35:08Z</time>
      </trkpt>
      <trkpt lat="48.85195" lon="7.31036">
        <ele>287.3</ele>
        <time>2023-10-08T08:35:13Z</time>
      </trkpt>
      <trkpt lat="48.8518" lon="7.31014">
        <ele>285.9</ele>
        <time>2023-10-08T08:35:18Z</time>
      </trkpt>
      <trkpt lat="48.85162" lon="7.30997">
        <ele>284.7</ele>
        <time>2023-10-08T08:35:23Z</time>
      </trkpt>
      <trkpt lat="48.85142" lon="7.30986">
        <ele>283.6</ele>
        <time>2023-10-08T08:35:28Z</time>
      </trkpt>
      <trkpt lat="48.85123" lon="7.30978">
        <ele>282.1</ele>
        <time>2023-10-08T08:35:33Z</time>
      </trkpt>
      <trkpt lat="48.85104" lon="7.30978">
        <ele>281.3</ele>
        <time>2023-10-08T08:35:39Z</time>
      </trkpt>
      <trkpt lat="48.85086" lon="7.30982">
        <ele>281.2</ele>
        <time>2023-10-08T08:35:45Z</time>
      </trkpt>
      <trkpt lat="48.85066" lon="7.30983">
        <ele>281.2</ele>
        <time>2023-10-08T08:35:50Z</time>
      </trkpt>
      <trkpt lat="48.85046" lon="7.30997">
        <ele>279.7</ele>
        <time>2023-10-08T08:35:55Z</time>
      </trkpt>
      <trkpt lat="48.85032" lon="7.31019">
        <ele>277.2</ele>
        <time>2023-10-08T08:36:00Z</time>
      </trkpt>
      <trkpt lat="48.85023" lon="7.31046">
        <ele>275.2</ele>
        <time>2023-10-08T08:36:06Z</time>
      </trkpt>
      <trkpt lat="48.85007" lon="7.31065">
        <ele>273.8</ele>
        <time>2023-10-08T08:36:13Z</time>
      </trkpt>
      <trkpt lat="48.85003" lon="7.31061">
        <ele>273.5</ele>
        <time>2023-10-08T08:36:14Z</time>
      </trkpt>
      <trkpt lat="48.8499" lon="7.31039">
        <ele>271.9</ele>
        <time>2023-10-08T08:36:19Z</time>
      </trkpt>
      <trkpt lat="48.84974" lon="7.31024">
        <ele>270.6</ele>
        <time>2023-10-08T08:36:23Z</time>
      </trkpt>
      <trkpt lat="48.84956" lon="7.31006">
        <ele>269.4</ele>
        <time>2023-10-08T08:36:28Z</time>
      </trkpt>
      <trkpt lat="48.8494" lon="7.30986">
        <ele>268.5</ele>
        <time>2023-10-08T08:36:33Z</time>
      </trkpt>
      <trkpt lat="48.84927" lon="7.30962">
        <ele>267.5</ele>
        <time>2023-10-08T08:36:38Z</time>
      </trkpt>
      <trkpt lat="48.84909" lon="7.30943">
        <ele>266.3</ele>
        <time>2023-10-08T08:36:43Z</time>
      </trkpt>
      <trkpt lat="48.84891" lon="7.30934">
        <ele>265.1</ele>
        <time>2023-10-08T08:36:47Z</time>
      </trkpt>
      <trkpt lat="48.84871" lon="7.30922">
        <ele>263.9</ele>
        <time>2023-10-08T08:36:52Z</time>
      </trkpt>
      <trkpt lat="48.84854" lon="7.30908">
        <ele>262.9</ele>
        <time>2023-10-08T08:36:57Z</time>
      </trkpt>
      <trkpt lat="48.84834" lon="7.30896">
        <ele>261.8</ele>
        <time>2023-10-08T08:37:02Z</time>
      </trkpt>
      <trkpt lat="48.84814" lon="7.30887">
        <ele>260.6</ele>
        <time>2023-10-08T08:37:07Z</time>
      </trkpt>
      <trkpt lat="48.84796" lon="7.30881">
        <ele>250.6</ele>
        <time>2023-10-08T08:37:11Z</time>
      </trkpt>
      <trkpt lat="48.84779" lon="7.3086">
        <ele>238.4</ele>
        <time>2023-10-08T08:37:15Z</time>
      </trkpt>
      <trkpt lat="48.8476" lon="7.30848">
        <ele>239.6</ele>
        <time>2023-10-08T08:37:20Z</time>
      </trkpt>
      <trkpt lat="48.84742" lon="7.30839">
        <ele>240.7</ele>
        <time>2023-10-08T08:37:24Z</time>
      </trkpt>
      <trkpt lat="48.84722" lon="7.30831">
        <ele>241.9</ele>
        <time>2023-10-08T08:37:29Z</time>
      </trkpt>
      <trkpt lat="48.84703" lon="7.3083">
        <ele>243.1</ele>
        <time>2023-10-08T08:37:34Z</time>
      </trkpt>
      <trkpt lat="48.84684" lon="7.30837">
        <ele>244.1</ele>
        <time>2023-10-08T08:37:39Z</time>
      </trkpt>
      <trkpt lat="48.84668" lon="7.30854">
        <ele>244.5</ele>
        <time>2023-10-08T08:37:44Z</time>
      </trkpt>
      <trkpt lat="48.8465" lon="7.30869">
        <ele>244.3</ele>
        <time>2023-10-08T08:37:49Z</time>
      </trkpt>
      <trkpt lat="48.84632" lon="7.30876">
        <ele>243.9</ele>
        <time>2023-10-08T08:37:53Z</time>
      </trkpt>
      <trkpt lat="48.84612" lon="7.30889">
        <ele>244.1</ele>
        <time>2023-10-08T08:37:58Z</time>
      </trkpt>
      <trkpt lat="48.84592" lon="7.30901">
        <ele>244.7</ele>
        <time>2023-10-08T08:38:03Z</time>
      </trkpt>
      <trkpt lat="48.84576" lon="7.30918">
        <ele>245.7</ele>
        <time>2023-10-08T08:38:08Z</time>
      </trkpt>
      <trkpt lat="48.8456" lon="7.3094">
        <ele>246.4</ele>
        <time>2023-10-08T08:38:14Z</time>
      </trkpt>
      <trkpt lat="48.84543" lon="7.30957">
        <ele>245.6</ele>
        <time>2023-10-08T08:38:19Z</time>
      </trkpt>
      <trkpt lat="48.84527" lon="7.30974">
        <ele>244.2</ele>
        <time>2023-10-08T08:38:24Z</time>
      </trkpt>
      <trkpt lat="48.84511" lon="7.30993">
        <ele>243</ele>
        <time>2023-10-08T08:38:29Z</time>
      </trkpt>
      <trkpt lat="48.84497" lon="7.3101">
        <ele>242</ele>
        <time>2023-10-08T08:38:33Z</time>
      </trkpt>
      <trkpt lat="48.84484" lon="7.3103">
        <ele>241.2</ele>
        <time>2023-10-08T08:38:37Z</time>
      </trkpt>
      <trkpt lat="48.84469" lon="7.31048">
        <ele>240.1</ele>
        <time>2023-10-08T08:38:42Z</time>
      </trkpt>
      <trkpt lat="48.84455" lon="7.31072">
        <ele>238.5</ele>
        <time>2023-10-08T08:38:47Z</time>
      </trkpt>
      <trkpt lat="48.84441" lon="7.31092">
        <ele>237.2</ele>
        <time>2023-10-08T08:38:51Z</time>
      </trkpt>
      <trkpt lat="48.8443" lon="7.31112">
        <ele>236.2</ele>
        <time>2023-10-08T08:38:55Z</time>
      </trkpt>
      <trkpt lat="48.84425" lon="7.31124">
        <ele>235.7</ele>
        <time>2023-10-08T08:38:57Z</time>
      </trkpt>
      <trkpt lat="48.84417" lon="7.31151">
        <ele>234.2</ele>
        <time>2023-10-08T08:39:01Z</time>
      </trkpt>
      <trkpt lat="48.84414" lon="7.31167">
        <ele>233.5</ele>
        <time>2023-10-08T08:39:03Z</time>
      </trkpt>
      <trkpt lat="48.84414" lon="7.31188">
        <ele>233</ele>
        <time>2023-10-08T08:39:06Z</time>
      </trkpt>
      <trkpt lat="48.84415" lon="7.31218">
        <ele>233.1</ele>
        <time>2023-10-08T08:39:11Z</time>
      </trkpt>
      <trkpt lat="48.84416" lon="7.31249">
        <ele>233.7</ele>
        <time>2023-10-08T08:39:16Z</time>
      </trkpt>
      <trkpt lat="48.84421" lon="7.31281">
        <ele>233.8</ele>
        <time>2023-10-08T08:39:21Z</time>
      </trkpt>
      <trkpt lat="48.84424" lon="7.31312">
        <ele>232.5</ele>
        <time>2023-10-08T08:39:26Z</time>
      </trkpt>
      <trkpt lat="48.84428" lon="7.31345">
        <ele>230.3</ele>
        <time>2023-10-08T08:39:31Z</time>
      </trkpt>
      <trkpt lat="48.84432" lon="7.31374">
        <ele>229</ele>
        <time>2023-10-08T08:39:35Z</time>
      </trkpt>
      <trkpt lat="48.8444" lon="7.314">
        <ele>228.1</ele>
        <time>2023-10-08T08:39:39Z</time>
      </trkpt>
      <trkpt lat="48.84446" lon="7.31431">
        <ele>227.6</ele>
        <time>2023-10-08T08:39:44Z</time>
      </trkpt>
      <trkpt lat="48.84455" lon="7.31459">
        <ele>227.4</ele>
        <time>2023-10-08T08:39:49Z</time>
      </trkpt>
      <trkpt lat="48.84466" lon="7.31484">
        <ele>227.2</ele>
        <time>2023-10-08T08:39:54Z</time>
      </trkpt>
      <trkpt lat="48.8448" lon="7.31507">
        <ele>226.9</ele>
        <time>2023-10-08T08:39:59Z</time>
      </trkpt>
      <trkpt lat="48.84494" lon="7.31533">
        <ele>226.4</ele>
        <time>2023-10-08T08:40:04Z</time>
      </trkpt>
      <trkpt lat="48.8451" lon="7.31555">
        <ele>226.1</ele>
        <time>2023-10-08T08:40:09Z</time>
      </trkpt>
      <trkpt lat="48.84526" lon="7.31576">
        <ele>225.9</ele>
        <time>2023-10-08T08:40:14Z</time>
      </trkpt>
      <trkpt lat="48.84542" lon="7.31598">
        <ele>225.7</ele>
        <time>2023-10-08T08:40:19Z</time>
      </trkpt>
      <trkpt lat="48.84559" lon="7.31619">
        <ele>225.5</ele>
        <time>2023-10-08T08:40:24Z</time>
      </trkpt>
      <trkpt lat="48.84573" lon="7.31643">
        <ele>225.4</ele>
        <time>2023-10-08T08:40:29Z</time>
      </trkpt>
      <trkpt lat="48.84587" lon="7.31666">
        <ele>225.4</ele>
        <time>2023-10-08T08:40:34Z</time>
      </trkpt>
      <trkpt lat="48.84601" lon="7.31687">
        <ele>225.7</ele>
        <time>2023-10-08T08:40:39Z</time>
      </trkpt>
      <trkpt lat="48.8461" lon="7.31698">
        <ele>225.9</ele>
        <time>2023-10-08T08:40:42Z</time>
      </trkpt>
      <trkpt lat="48.84625" lon="7.31721">
        <ele>226.3</ele>
        <time>2023-10-08T08:40:48Z</time>
      </trkpt>
      <trkpt lat="48.84628" lon="7.31726">
        <ele>226.3</ele>
        <time>2023-10-08T08:40:49Z</time>
      </trkpt>
      <trkpt lat="48.84637" lon="7.31741">
        <ele>226.4</ele>
        <time>2023-10-08T08:40:53Z</time>
      </trkpt>
      <trkpt lat="48.84641" lon="7.31739">
        <ele>227.9</ele>
        <time>2023-10-08T08:40:56Z</time>
      </trkpt>
      <trkpt lat="48.84638" lon="7.31715">
        <ele>230.7</ele>
        <time>2023-10-08T08:41:02Z</time>
      </trkpt>
      <trkpt lat="48.84627" lon="7.31692">
        <ele>233.5</ele>
        <time>2023-10-08T08:41:08Z</time>
      </trkpt>
      <trkpt lat="48.84612" lon="7.31671">
        <ele>236.8</ele>
        <time>2023-10-08T08:41:15Z</time>
      </trkpt>
      <trkpt lat="48.84601" lon="7.31648">
        <ele>240.2</ele>
        <time>2023-10-08T08:41:23Z</time>
      </trkpt>
      <trkpt lat="48.84592" lon="7.31621">
        <ele>244.7</ele>
        <time>2023-10-08T08:41:32Z</time>
      </trkpt>
      <trkpt lat="48.84585" lon="7.31595">
        <ele>249.7</ele>
        <time>2023-10-08T08:41:42Z</time>
      </trkpt>
      <trkpt lat="48.84585" lon="7.31587">
        <ele>251.1</ele>
        <time>2023-10-08T08:41:45Z</time>
      </trkpt>
      <trkpt lat="48.84595" lon="7.31587">
        <ele>253.8</ele>
        <time>2023-10-08T08:41:54Z</time>
      </trkpt>
      <trkpt lat="48.8459" lon="7.3157">
        <ele>257.1</ele>
        <time>2023-10-08T08:42:00Z</time>
      </trkpt>
      <trkpt lat="48.8459" lon="7.31567">
        <ele>257.8</ele>
        <time>2023-10-08T08:42:02Z</time>
      </trkpt>
      <trkpt lat="48.84601" lon="7.31561">
        <ele>260.8</ele>
        <time>2023-10-08T08:42:13Z</time>
      </trkpt>
      <trkpt lat="48.84607" lon="7.31563">
        <ele>262</ele>
        <time>2023-10-08T08:42:17Z</time>
      </trkpt>
      <trkpt lat="48.84609" lon="7.3156">
        <ele>262.7</ele>
        <time>2023-10-08T08:42:19Z</time>
      </trkpt>
      <trkpt lat="48.8461" lon="7.31554">
        <ele>263.4</ele>
        <time>2023-10-08T08:42:21Z</time>
      </trkpt>
      <trkpt lat="48.84611" lon="7.31545">
        <ele>264.5</ele>
        <time>2023-10-08T08:42:24Z</time>
      </trkpt>
      <trkpt lat="48.84607" lon="7.31518">
        <ele>266.3</ele>
        <time>2023-10-08T08:42:31Z</time>
      </trkpt>
      <trkpt lat="48.84608" lon="7.31488">
        <ele>269.1</ele>
        <time>2023-10-08T08:42:40Z</time>
      </trkpt>
      <trkpt lat="48.84606" lon="7.31464">
        <ele>272.4</ele>
        <time>2023-10-08T08:42:47Z</time>
      </trkpt>
      <trkpt lat="48.84607" lon="7.31463">
        <ele>272.8</ele>
        <time>2023-10-08T08:42:49Z</time>
      </trkpt>
      <trkpt lat="48.8461" lon="7.31462">
        <ele>273.5</ele>
        <time>2023-10-08T08:42:52Z</time>
      </trkpt>
      <trkpt lat="48.8461" lon="7.31435">
        <ele>277.7</ele>
        <time>2023-10-08T08:43:03Z</time>
      </trkpt>
      <trkpt lat="48.84614" lon="7.31406">
        <ele>281.4</ele>
        <time>2023-10-08T08:43:12Z</time>
      </trkpt>
      <trkpt lat="48.84611" lon="7.31383">
        <ele>283.7</ele>
        <time>2023-10-08T08:43:18Z</time>
      </trkpt>
      <trkpt lat="48.84615" lon="7.31354">
        <ele>286.4</ele>
        <time>2023-10-08T08:43:26Z</time>
      </trkpt>
      <trkpt lat="48.84618" lon="7.31325">
        <ele>290.3</ele>
        <time>2023-10-08T08:43:35Z</time>
      </trkpt>
      <trkpt lat="48.84619" lon="7.3132">
        <ele>291.2</ele>
        <time>2023-10-08T08:43:37Z</time>
      </trkpt>
      <trkpt lat="48.84624" lon="7.31312">
        <ele>293.2</ele>
        <time>2023-10-08T08:43:41Z</time>
      </trkpt>
      <trkpt lat="48.84634" lon="7.31288">
        <ele>297.5</ele>
        <time>2023-10-08T08:43:49Z</time>
      </trkpt>
      <trkpt lat="48.84639" lon="7.3126">
        <ele>301.6</ele>
        <time>2023-10-08T08:43:59Z</time>
      </trkpt>
      <trkpt lat="48.84645" lon="7.3123">
        <ele>306.2</ele>
        <time>2023-10-08T08:44:09Z</time>
      </trkpt>
      <trkpt lat="48.84658" lon="7.31208">
        <ele>311.1</ele>
        <time>2023-10-08T08:44:18Z</time>
      </trkpt>
      <trkpt lat="48.84666" lon="7.31191">
        <ele>315.3</ele>
        <time>2023-10-08T08:44:27Z</time>
      </trkpt>
      <trkpt lat="48.84678" lon="7.31172">
        <ele>321.9</ele>
        <time>2023-10-08T08:44:38Z</time>
      </trkpt>
      <trkpt lat="48.84692" lon="7.31155">
        <ele>323.5</ele>
        <time>2023-10-08T08:44:47Z</time>
      </trkpt>
      <trkpt lat="48.84709" lon="7.31145">
        <ele>327.8</ele>
        <time>2023-10-08T08:44:55Z</time>
      </trkpt>
      <trkpt lat="48.84713" lon="7.31144">
        <ele>328.8</ele>
        <time>2023-10-08T08:45:02Z</time>
      </trkpt>
      <trkpt lat="48.8471" lon="7.31147">
        <ele>329.9</ele>
        <time>2023-10-08T08:45:06Z</time>
      </trkpt>
      <trkpt lat="48.84729" lon="7.31153">
        <ele>333.7</ele>
        <time>2023-10-08T08:45:17Z</time>
      </trkpt>
      <trkpt lat="48.84747" lon="7.31152">
        <ele>336.2</ele>
        <time>2023-10-08T08:45:25Z</time>
      </trkpt>
      <trkpt lat="48.84759" lon="7.31158">
        <ele>338.6</ele>
        <time>2023-10-08T08:45:34Z</time>
      </trkpt>
      <trkpt lat="48.84756" lon="7.31157">
        <ele>339.4</ele>
        <time>2023-10-08T08:45:37Z</time>
      </trkpt>
      <trkpt lat="48.84739" lon="7.31169">
        <ele>343.4</ele>
        <time>2023-10-08T08:45:45Z</time>
      </trkpt>
      <trkpt lat="48.84721" lon="7.31185">
        <ele>347.1</ele>
        <time>2023-10-08T08:45:52Z</time>
      </trkpt>
      <trkpt lat="48.84713" lon="7.3121">
        <ele>349.8</ele>
        <time>2023-10-08T08:45:59Z</time>
      </trkpt>
      <trkpt lat="48.84718" lon="7.31238">
        <ele>350.9</ele>
        <time>2023-10-08T08:46:04Z</time>
      </trkpt>
      <trkpt lat="48.84725" lon="7.31267">
        <ele>352</ele>
        <time>2023-10-08T08:46:11Z</time>
      </trkpt>
      <trkpt lat="48.84738" lon="7.31287">
        <ele>354.2</ele>
        <time>2023-10-08T08:46:20Z</time>
      </trkpt>
      <trkpt lat="48.8474" lon="7.31287">
        <ele>354.5</ele>
        <time>2023-10-08T08:46:21Z</time>
      </trkpt>
      <trkpt lat="48.8476" lon="7.31275">
        <ele>357.6</ele>
        <time>2023-10-08T08:46:28Z</time>
      </trkpt>
      <trkpt lat="48.84778" lon="7.31268">
        <ele>359.7</ele>
        <time>2023-10-08T08:46:33Z</time>
      </trkpt>
      <trkpt lat="48.84799" lon="7.31266">
        <ele>361</ele>
        <time>2023-10-08T08:46:39Z</time>
      </trkpt>
      <trkpt lat="48.84817" lon="7.31268">
        <ele>361.2</ele>
        <time>2023-10-08T08:46:44Z</time>
      </trkpt>
      <trkpt lat="48.84839" lon="7.31273">
        <ele>360.2</ele>
        <time>2023-10-08T08:46:49Z</time>
      </trkpt>
      <trkpt lat="48.84857" lon="7.31279">
        <ele>359.3</ele>
        <time>2023-10-08T08:46:53Z</time>
      </trkpt>
      <trkpt lat="48.84877" lon="7.3129">
        <ele>358.9</ele>
        <time>2023-10-08T08:46:58Z</time>
      </trkpt>
      <trkpt lat="48.84897" lon="7.31303">
        <ele>358.1</ele>
        <time>2023-10-08T08:47:03Z</time>
      </trkpt>
      <trkpt lat="48.84913" lon="7.31315">
        <ele>357.6</ele>
        <time>2023-10-08T08:47:07Z</time>
      </trkpt>
      <trkpt lat="48.84928" lon="7.3133">
        <ele>357.7</ele>
        <time>2023-10-08T08:47:11Z</time>
      </trkpt>
      <trkpt lat="48.84947" lon="7.31343">
        <ele>358.1</ele>
        <time>2023-10-08T08:47:16Z</time>
      </trkpt>
      <trkpt lat="48.84966" lon="7.31352">
        <ele>358.6</ele>
        <time>2023-10-08T08:47:21Z</time>
      </trkpt>
      <trkpt lat="48.84984" lon="7.31357">
        <ele>358.9</ele>
        <time>2023-10-08T08:47:26Z</time>
      </trkpt>
      <trkpt lat="48.85004" lon="7.31357">
        <ele>359.3</ele>
        <time>2023-10-08T08:47:31Z</time>
      </trkpt>
      <trkpt lat="48.85024" lon="7.31359">
        <ele>360.2</ele>
        <time>2023-10-08T08:47:37Z</time>
      </trkpt>
      <trkpt lat="48.85042" lon="7.31375">
        <ele>361.5</ele>
        <time>2023-10-08T08:47:44Z</time>
      </trkpt>
      <trkpt lat="48.85059" lon="7.31385">
        <ele>363</ele>
        <time>2023-10-08T08:47:49Z</time>
      </trkpt>
      <trkpt lat="48.8508" lon="7.31384">
        <ele>363.7</ele>
        <time>2023-10-08T08:47:56Z</time>
      </trkpt>
      <trkpt lat="48.85101" lon="7.31385">
        <ele>364.3</ele>
        <time>2023-10-08T08:48:02Z</time>
      </trkpt>
      <trkpt lat="48.85121" lon="7.3139">
        <ele>364.5</ele>
        <time>2023-10-08T08:48:07Z</time>
      </trkpt>
      <trkpt lat="48.8514" lon="7.31397">
        <ele>364.2</ele>
        <time>2023-10-08T08:48:12Z</time>
      </trkpt>
      <trkpt lat="48.85159" lon="7.31407">
        <ele>363.8</ele>
        <time>2023-10-08T08:48:17Z</time>
      </trkpt>
      <trkpt lat="48.85176" lon="7.31424">
        <ele>363.3</ele>
        <time>2023-10-08T08:48:23Z</time>
      </trkpt>
      <trkpt lat="48.85196" lon="7.3144">
        <ele>362.9</ele>
        <time>2023-10-08T08:48:29Z</time>
      </trkpt>
      <trkpt lat="48.85213" lon="7.31454">
        <ele>362.5</ele>
        <time>2023-10-08T08:48:34Z</time>
      </trkpt>
      <trkpt lat="48.8523" lon="7.31462">
        <ele>362.3</ele>
        <time>2023-10-08T08:48:38Z</time>
      </trkpt>
      <trkpt lat="48.85247" lon="7.31476">
        <ele>362.5</ele>
        <time>2023-10-08T08:48:43Z</time>
      </trkpt>
      <trkpt lat="48.85264" lon="7.31489">
        <ele>363.3</ele>
        <time>2023-10-08T08:48:48Z</time>
      </trkpt>
      <trkpt lat="48.85282" lon="7.31502">
        <ele>364.4</ele>
        <time>2023-10-08T08:48:53Z</time>
      </trkpt>
      <trkpt lat="48.85298" lon="7.31517">
        <ele>365.4</ele>
        <time>2023-10-08T08:48:58Z</time>
      </trkpt>
      <trkpt lat="48.85313" lon="7.31536">
        <ele>366.1</ele>
        <time>2023-10-08T08:49:03Z</time>
      </trkpt>
      <trkpt lat="48.85321" lon="7.31562">
        <ele>366.5</ele>
        <time>2023-10-08T08:49:08Z</time>
      </trkpt>
      <trkpt lat="48.85332" lon="7.31589">
        <ele>366.8</ele>
        <time>2023-10-08T08:49:13Z</time>
      </trkpt>
      <trkpt lat="48.85344" lon="7.31616">
        <ele>367.2</ele>
        <time>2023-10-08T08:49:18Z</time>
      </trkpt>
      <trkpt lat="48.85351" lon="7.31641">
        <ele>367.9</ele>
        <time>2023-10-08T08:49:23Z</time>
      </trkpt>
      <trkpt lat="48.85348" lon="7.31643">
        <ele>369.3</ele>
        <time>2023-10-08T08:49:24Z</time>
      </trkpt>
      <trkpt lat="48.8533" lon="7.31632">
        <ele>372.3</ele>
        <time>2023-10-08T08:49:32Z</time>
      </trkpt>
      <trkpt lat="48.85312" lon="7.31621">
        <ele>375.2</ele>
        <time>2023-10-08T08:49:41Z</time>
      </trkpt>
      <trkpt lat="48.85293" lon="7.31622">
        <ele>378.3</ele>
        <time>2023-10-08T08:49:50Z</time>
      </trkpt>
      <trkpt lat="48.85273" lon="7.31615">
        <ele>381</ele>
        <time>2023-10-08T08:50:00Z</time>
      </trkpt>
      <trkpt lat="48.85257" lon="7.31625">
        <ele>382.8</ele>
        <time>2023-10-08T08:50:07Z</time>
      </trkpt>
      <trkpt lat="48.85243" lon="7.31648">
        <ele>384.2</ele>
        <time>2023-10-08T08:50:13Z</time>
      </trkpt>
      <trkpt lat="48.85245" lon="7.3168">
        <ele>385.2</ele>
        <time>2023-10-08T08:50:19Z</time>
      </trkpt>
      <trkpt lat="48.85254" lon="7.31705">
        <ele>385.7</ele>
        <time>2023-10-08T08:50:24Z</time>
      </trkpt>
      <trkpt lat="48.85266" lon="7.31727">
        <ele>385.9</ele>
        <time>2023-10-08T08:50:29Z</time>
      </trkpt>
      <trkpt lat="48.85278" lon="7.3175">
        <ele>386.2</ele>
        <time>2023-10-08T08:50:34Z</time>
      </trkpt>
      <trkpt lat="48.85289" lon="7.31774">
        <ele>387.1</ele>
        <time>2023-10-08T08:50:40Z</time>
      </trkpt>
      <trkpt lat="48.85301" lon="7.31798">
        <ele>387.6</ele>
        <time>2023-10-08T08:50:46Z</time>
      </trkpt>
      <trkpt lat="48.85314" lon="7.31827">
        <ele>387.2</ele>
        <time>2023-10-08T08:50:51Z</time>
      </trkpt>
      <trkpt lat="48.85318" lon="7.31858">
        <ele>386.7</ele>
        <time>2023-10-08T08:50:56Z</time>
      </trkpt>
      <trkpt lat="48.85317" lon="7.31889">
        <ele>382.9</ele>
        <time>2023-10-08T08:51:02Z</time>
      </trkpt>
      <trkpt lat="48.85324" lon="7.31917">
        <ele>378.7</ele>
        <time>2023-10-08T08:51:07Z</time>
      </trkpt>
      <trkpt lat="48.85339" lon="7.31938">
        <ele>374.3</ele>
        <time>2023-10-08T08:51:13Z</time>
      </trkpt>
      <trkpt lat="48.85358" lon="7.3194">
        <ele>370</ele>
        <time>2023-10-08T08:51:17Z</time>
      </trkpt>
      <trkpt lat="48.85379" lon="7.31945">
        <ele>366.1</ele>
        <time>2023-10-08T08:51:21Z</time>
      </trkpt>
      <trkpt lat="48.85401" lon="7.31951">
        <ele>363.9</ele>
        <time>2023-10-08T08:51:25Z</time>
      </trkpt>
      <trkpt lat="48.85421" lon="7.31958">
        <ele>363</ele>
        <time>2023-10-08T08:51:30Z</time>
      </trkpt>
      <trkpt lat="48.85442" lon="7.31961">
        <ele>362.1</ele>
        <time>2023-10-08T08:51:34Z</time>
      </trkpt>
      <trkpt lat="48.8546" lon="7.31962">
        <ele>360.8</ele>
        <time>2023-10-08T08:51:38Z</time>
      </trkpt>
      <trkpt lat="48.8548" lon="7.31954">
        <ele>358.8</ele>
        <time>2023-10-08T08:51:42Z</time>
      </trkpt>
      <trkpt lat="48.85498" lon="7.31949">
        <ele>357</ele>
        <time>2023-10-08T08:51:46Z</time>
      </trkpt>
      <trkpt lat="48.85518" lon="7.31946">
        <ele>355.9</ele>
        <time>2023-10-08T08:51:50Z</time>
      </trkpt>
      <trkpt lat="48.85537" lon="7.31944">
        <ele>355.7</ele>
        <time>2023-10-08T08:51:54Z</time>
      </trkpt>
      <trkpt lat="48.85556" lon="7.31942">
        <ele>355.7</ele>
        <time>2023-10-08T08:51:58Z</time>
      </trkpt>
      <trkpt lat="48.85575" lon="7.31944">
        <ele>355.5</ele>
        <time>2023-10-08T08:52:03Z</time>
      </trkpt>
      <trkpt lat="48.85578" lon="7.31944">
        <ele>354.5</ele>
        <time>2023-10-08T08:52:04Z</time>
      </trkpt>
      <trkpt lat="48.85595" lon="7.31925">
        <ele>350.9</ele>
        <time>2023-10-08T08:52:10Z</time>
      </trkpt>
      <trkpt lat="48.85597" lon="7.31921">
        <ele>350.7</ele>
        <time>2023-10-08T08:52:11Z</time>
      </trkpt>
      <trkpt lat="48.8561" lon="7.31897">
        <ele>350.9</ele>
        <time>2023-10-08T08:52:18Z</time>
      </trkpt>
      <trkpt lat="48.85614" lon="7.31893">
        <ele>350.9</ele>
        <time>2023-10-08T08:52:19Z</time>
      </trkpt>
      <trkpt lat="48.85631" lon="7.31884">
        <ele>351.1</ele>
        <time>2023-10-08T08:52:24Z</time>
      </trkpt>
      <trkpt lat="48.8564" lon="7.31876">
        <ele>351.4</ele>
        <time>2023-10-08T08:52:26Z</time>
      </trkpt>
      <trkpt lat="48.85649" lon="7.31858">
        <ele>351.1</ele>
        <time>2023-10-08T08:52:29Z</time>
      </trkpt>
      <trkpt lat="48.85657" lon="7.31837">
        <ele>350.6</ele>
        <time>2023-10-08T08:52:33Z</time>
      </trkpt>
      <trkpt lat="48.85662" lon="7.31831">
        <ele>350.5</ele>
        <time>2023-10-08T08:52:35Z</time>
      </trkpt>
      <trkpt lat="48.85669" lon="7.31826">
        <ele>349.9</ele>
        <time>2023-10-08T08:52:37Z</time>
      </trkpt>
      <trkpt lat="48.85671" lon="7.31816">
        <ele>349.7</ele>
        <time>2023-10-08T08:52:39Z</time>
      </trkpt>
      <trkpt lat="48.85668" lon="7.31803">
        <ele>349.4</ele>
        <time>2023-10-08T08:52:41Z</time>
      </trkpt>
      <trkpt lat="48.85662" lon="7.31776">
        <ele>348.3</ele>
        <time>2023-10-08T08:52:45Z</time>
      </trkpt>
      <trkpt lat="48.85665" lon="7.31748">
        <ele>347.8</ele>
        <time>2023-10-08T08:52:49Z</time>
      </trkpt>
      <trkpt lat="48.85671" lon="7.3172">
        <ele>347.6</ele>
        <time>2023-10-08T08:52:53Z</time>
      </trkpt>
      <trkpt lat="48.85678" lon="7.31693">
        <ele>346.7</ele>
        <time>2023-10-08T08:52:57Z</time>
      </trkpt>
      <trkpt lat="48.85683" lon="7.31661">
        <ele>345.6</ele>
        <time>2023-10-08T08:53:02Z</time>
      </trkpt>
      <trkpt lat="48.85688" lon="7.31629">
        <ele>344.6</ele>
        <time>2023-10-08T08:53:07Z</time>
      </trkpt>
      <trkpt lat="48.85692" lon="7.31602">
        <ele>343.6</ele>
        <time>2023-10-08T08:53:11Z</time>
      </trkpt>
      <trkpt lat="48.85695" lon="7.31576">
        <ele>342.1</ele>
        <time>2023-10-08T08:53:15Z</time>
      </trkpt>
      <trkpt lat="48.85694" lon="7.31555">
        <ele>340.8</ele>
        <time>2023-10-08T08:53:18Z</time>
      </trkpt>
      <trkpt lat="48.85689" lon="7.31541">
        <ele>340.2</ele>
        <time>2023-10-08T08:53:20Z</time>
      </trkpt>
      <trkpt lat="48.85683" lon="7.31534">
        <ele>340</ele>
        <time>2023-10-08T08:53:22Z</time>
      </trkpt>
      <trkpt lat="48.85677" lon="7.31524">
        <ele>338.4</ele>
        <time>2023-10-08T08:53:26Z</time>
      </trkpt>
      <trkpt lat="48.85682" lon="7.31518">
        <ele>331</ele>
        <time>2023-10-08T08:53:32Z</time>
      </trkpt>
      <trkpt lat="48.85679" lon="7.31505">
        <ele>329.5</ele>
        <time>2023-10-08T08:53:36Z</time>
      </trkpt>
      <trkpt lat="48.85681" lon="7.31475">
        <ele>327.3</ele>
        <time>2023-10-08T08:53:41Z</time>
      </trkpt>
      <trkpt lat="48.85684" lon="7.31442">
        <ele>320.9</ele>
        <time>2023-10-08T08:53:46Z</time>
      </trkpt>
      <trkpt lat="48.85685" lon="7.31427">
        <ele>317.7</ele>
        <time>2023-10-08T08:53:48Z</time>
      </trkpt>
      <trkpt lat="48.85689" lon="7.314">
        <ele>312.8</ele>
        <time>2023-10-08T08:53:52Z</time>
      </trkpt>
      <trkpt lat="48.85691" lon="7.31378">
        <ele>308.8</ele>
        <time>2023-10-08T08:53:55Z</time>
      </trkpt>
      <trkpt lat="48.85695" lon="7.31359">
        <ele>305.1</ele>
        <time>2023-10-08T08:53:58Z</time>
      </trkpt>
      <trkpt lat="48.85696" lon="7.31326">
        <ele>297.6</ele>
        <time>2023-10-08T08:54:03Z</time>
      </trkpt>
      <trkpt lat="48.85695" lon="7.3132">
        <ele>296.1</ele>
        <time>2023-10-08T08:54:04Z</time>
      </trkpt>
      <trkpt lat="48.85696" lon="7.313">
        <ele>291.7</ele>
        <time>2023-10-08T08:54:07Z</time>
      </trkpt>
      <trkpt lat="48.85698" lon="7.31269">
        <ele>286.6</ele>
        <time>2023-10-08T08:54:11Z</time>
      </trkpt>
      <trkpt lat="48.85703" lon="7.31239">
        <ele>283.2</ele>
        <time>2023-10-08T08:54:15Z</time>
      </trkpt>
      <trkpt lat="48.85709" lon="7.31219">
        <ele>281.4</ele>
        <time>2023-10-08T08:54:18Z</time>
      </trkpt>
      <trkpt lat="48.85714" lon="7.31209">
        <ele>280.4</ele>
        <time>2023-10-08T08:54:20Z</time>
      </trkpt>
      <trkpt lat="48.85723" lon="7.3119">
        <ele>278.8</ele>
        <time>2023-10-08T08:54:24Z</time>
      </trkpt>
      <trkpt lat="48.85728" lon="7.31184">
        <ele>278</ele>
        <time>2023-10-08T08:54:26Z</time>
      </trkpt>
      <trkpt lat="48.85738" lon="7.31176">
        <ele>276.3</ele>
        <time>2023-10-08T08:54:30Z</time>
      </trkpt>
      <trkpt lat="48.85745" lon="7.31176">
        <ele>275.2</ele>
        <time>2023-10-08T08:54:32Z</time>
      </trkpt>
      <trkpt lat="48.85753" lon="7.31177">
        <ele>273.7</ele>
        <time>2023-10-08T08:54:34Z</time>
      </trkpt>
      <trkpt lat="48.8576" lon="7.31173">
        <ele>271.9</ele>
        <time>2023-10-08T08:54:36Z</time>
      </trkpt>
      <trkpt lat="48.85776" lon="7.31157">
        <ele>267.7</ele>
        <time>2023-10-08T08:54:40Z</time>
      </trkpt>
      <trkpt lat="48.85783" lon="7.31147">
        <ele>265.9</ele>
        <time>2023-10-08T08:54:42Z</time>
      </trkpt>
      <trkpt lat="48.8579" lon="7.31128">
        <ele>263.6</ele>
        <time>2023-10-08T08:54:46Z</time>
      </trkpt>
      <trkpt lat="48.85808" lon="7.31115">
        <ele>261.1</ele>
        <time>2023-10-08T08:54:50Z</time>
      </trkpt>
      <trkpt lat="48.85827" lon="7.31108">
        <ele>259.1</ele>
        <time>2023-10-08T08:54:54Z</time>
      </trkpt>
      <trkpt lat="48.85831" lon="7.31107">
        <ele>258.8</ele>
        <time>2023-10-08T08:54:55Z</time>
      </trkpt>
      <trkpt lat="48.85835" lon="7.31111">
        <ele>258.4</ele>
        <time>2023-10-08T08:54:57Z</time>
      </trkpt>
      <trkpt lat="48.85838" lon="7.31121">
        <ele>257.8</ele>
        <time>2023-10-08T08:54:59Z</time>
      </trkpt>
      <trkpt lat="48.85841" lon="7.31127">
        <ele>257.2</ele>
        <time>2023-10-08T08:55:01Z</time>
      </trkpt>
      <trkpt lat="48.85839" lon="7.31159">
        <ele>258.1</ele>
        <time>2023-10-08T08:55:08Z</time>
      </trkpt>
      <trkpt lat="48.85831" lon="7.31189">
        <ele>259.3</ele>
        <time>2023-10-08T08:55:12Z</time>
      </trkpt>
      <trkpt lat="48.85824" lon="7.31214">
        <ele>260.3</ele>
        <time>2023-10-08T08:55:16Z</time>
      </trkpt>
      <trkpt lat="48.8582" lon="7.31242">
        <ele>261.3</ele>
        <time>2023-10-08T08:55:21Z</time>
      </trkpt>
      <trkpt lat="48.85814" lon="7.31274">
        <ele>262.4</ele>
        <time>2023-10-08T08:55:26Z</time>
      </trkpt>
      <trkpt lat="48.8581" lon="7.31304">
        <ele>263.8</ele>
        <time>2023-10-08T08:55:31Z</time>
      </trkpt>
      <trkpt lat="48.85809" lon="7.31339">
        <ele>266.5</ele>
        <time>2023-10-08T08:55:37Z</time>
      </trkpt>
      <trkpt lat="48.8581" lon="7.31369">
        <ele>269.1</ele>
        <time>2023-10-08T08:55:43Z</time>
      </trkpt>
      <trkpt lat="48.85819" lon="7.31402">
        <ele>272.3</ele>
        <time>2023-10-08T08:55:51Z</time>
      </trkpt>
      <trkpt lat="48.85818" lon="7.31432">
        <ele>275.2</ele>
        <time>2023-10-08T08:55:58Z</time>
      </trkpt>
      <trkpt lat="48.85819" lon="7.31461">
        <ele>277.9</ele>
        <time>2023-10-08T08:56:04Z</time>
      </trkpt>
      <trkpt lat="48.85818" lon="7.31489">
        <ele>280.5</ele>
        <time>2023-10-08T08:56:09Z</time>
      </trkpt>
      <trkpt lat="48.85821" lon="7.3152">
        <ele>283.4</ele>
        <time>2023-10-08T08:56:15Z</time>
      </trkpt>
      <trkpt lat="48.8584" lon="7.31542">
        <ele>286.6</ele>
        <time>2023-10-08T08:56:21Z</time>
      </trkpt>
      <trkpt lat="48.85855" lon="7.31563">
        <ele>290</ele>
        <time>2023-10-08T08:56:27Z</time>
      </trkpt>
      <trkpt lat="48.8586" lon="7.3159">
        <ele>291</ele>
        <time>2023-10-08T08:56:34Z</time>
      </trkpt>
      <trkpt lat="48.85871" lon="7.31612">
        <ele>292.6</ele>
        <time>2023-10-08T08:56:42Z</time>
      </trkpt>
      <trkpt lat="48.85885" lon="7.31631">
        <ele>295.1</ele>
        <time>2023-10-08T08:56:51Z</time>
      </trkpt>
      <trkpt lat="48.85887" lon="7.31657">
        <ele>297.7</ele>
        <time>2023-10-08T08:57:04Z</time>
      </trkpt>
      <trkpt lat="48.85884" lon="7.31687">
        <ele>300.7</ele>
        <time>2023-10-08T08:57:14Z</time>
      </trkpt>
      <trkpt lat="48.85883" lon="7.31717">
        <ele>302.7</ele>
        <time>2023-10-08T08:57:22Z</time>
      </trkpt>
      <trkpt lat="48.85885" lon="7.31745">
        <ele>303.9</ele>
        <time>2023-10-08T08:57:29Z</time>
      </trkpt>
      <trkpt lat="48.85887" lon="7.31773">
        <ele>305.7</ele>
        <time>2023-10-08T08:57:37Z</time>
      </trkpt>
      <trkpt lat="48.85888" lon="7.31804">
        <ele>308</ele>
        <time>2023-10-08T08:57:47Z</time>
      </trkpt>
      <trkpt lat="48.8589" lon="7.31832">
        <ele>310.1</ele>
        <time>2023-10-08T08:57:55Z</time>
      </trkpt>
      <trkpt lat="48.85891" lon="7.31862">
        <ele>312.7</ele>
        <time>2023-10-08T08:58:02Z</time>
      </trkpt>
      <trkpt lat="48.85898" lon="7.31889">
        <ele>315.5</ele>
        <time>2023-10-08T08:58:10Z</time>
      </trkpt>
      <trkpt lat="48.85904" lon="7.31916">
        <ele>318.1</ele>
        <time>2023-10-08T08:58:17Z</time>
      </trkpt>
      <trkpt lat="48.85916" lon="7.31938">
        <ele>320.5</ele>
        <time>2023-10-08T08:58:25Z</time>
      </trkpt>
      <trkpt lat="48.85928" lon="7.3196">
        <ele>323.6</ele>
        <time>2023-10-08T08:58:34Z</time>
      </trkpt>
      <trkpt lat="48.85936" lon="7.31986">
        <ele>327.1</ele>
        <time>2023-10-08T08:58:43Z</time>
      </trkpt>
      <trkpt lat="48.85953" lon="7.31997">
        <ele>334.5</ele>
        <time>2023-10-08T08:58:51Z</time>
      </trkpt>
      <trkpt lat="48.85954" lon="7.31995">
        <ele>334.3</ele>
        <time>2023-10-08T08:58:52Z</time>
      </trkpt>
      <trkpt lat="48.8595" lon="7.31965">
        <ele>333.5</ele>
        <time>2023-10-08T08:58:58Z</time>
      </trkpt>
      <trkpt lat="48.85943" lon="7.31935">
        <ele>332.4</ele>
        <time>2023-10-08T08:59:03Z</time>
      </trkpt>
      <trkpt lat="48.85937" lon="7.31905">
        <ele>331.2</ele>
        <time>2023-10-08T08:59:08Z</time>
      </trkpt>
      <trkpt lat="48.85929" lon="7.31876">
        <ele>330</ele>
        <time>2023-10-08T08:59:13Z</time>
      </trkpt>
      <trkpt lat="48.85927" lon="7.31845">
        <ele>328.7</ele>
        <time>2023-10-08T08:59:18Z</time>
      </trkpt>
      <trkpt lat="48.85932" lon="7.31813">
        <ele>327.3</ele>
        <time>2023-10-08T08:59:23Z</time>
      </trkpt>
      <trkpt lat="48.85936" lon="7.31783">
        <ele>326.1</ele>
        <time>2023-10-08T08:59:28Z</time>
      </trkpt>
      <trkpt lat="48.85943" lon="7.31753">
        <ele>324.7</ele>
        <time>2023-10-08T08:59:33Z</time>
      </trkpt>
      <trkpt lat="48.85946" lon="7.31724">
        <ele>323.4</ele>
        <time>2023-10-08T08:59:37Z</time>
      </trkpt>
      <trkpt lat="48.85948" lon="7.31718">
        <ele>323.1</ele>
        <time>2023-10-08T08:59:38Z</time>
      </trkpt>
      <trkpt lat="48.85952" lon="7.31691">
        <ele>321.8</ele>
        <time>2023-10-08T08:59:42Z</time>
      </trkpt>
      <trkpt lat="48.85955" lon="7.31658">
        <ele>320.4</ele>
        <time>2023-10-08T08:59:47Z</time>
      </trkpt>
      <trkpt lat="48.85957" lon="7.31651">
        <ele>320</ele>
        <time>2023-10-08T08:59:48Z</time>
      </trkpt>
      <trkpt lat="48.85959" lon="7.31621">
        <ele>318.7</ele>
        <time>2023-10-08T08:59:52Z</time>
      </trkpt>
      <trkpt lat="48.85959" lon="7.3159">
        <ele>317.2</ele>
        <time>2023-10-08T08:59:56Z</time>
      </trkpt>
      <trkpt lat="48.85961" lon="7.3156">
        <ele>316</ele>
        <time>2023-10-08T09:00:00Z</time>
      </trkpt>
      <trkpt lat="48.85963" lon="7.31529">
        <ele>314.7</ele>
        <time>2023-10-08T09:00:04Z</time>
      </trkpt>
      <trkpt lat="48.85964" lon="7.31499">
        <ele>313.5</ele>
        <time>2023-10-08T09:00:08Z</time>
      </trkpt>
      <trkpt lat="48.85964" lon="7.31492">
        <ele>313.2</ele>
        <time>2023-10-08T09:00:09Z</time>
      </trkpt>
      <trkpt lat="48.85969" lon="7.31465">
        <ele>311.9</ele>
        <time>2023-10-08T09:00:13Z</time>
      </trkpt>
      <trkpt lat="48.85972" lon="7.3145">
        <ele>311.3</ele>
        <time>2023-10-08T09:00:15Z</time>
      </trkpt>
      <trkpt lat="48.85979" lon="7.31425">
        <ele>310.1</ele>
        <time>2023-10-08T09:00:19Z</time>
      </trkpt>
      <trkpt lat="48.85984" lon="7.31398">
        <ele>309</ele>
        <time>2023-10-08T09:00:23Z</time>
      </trkpt>
      <trkpt lat="48.85989" lon="7.31369">
        <ele>307.8</ele>
        <time>2023-10-08T09:00:27Z</time>
      </trkpt>
      <trkpt lat="48.85991" lon="7.31362">
        <ele>307.5</ele>
        <time>2023-10-08T09:00:28Z</time>
      </trkpt>
      <trkpt lat="48.86001" lon="7.31343">
        <ele>306.5</ele>
        <time>2023-10-08T09:00:32Z</time>
      </trkpt>
      <trkpt lat="48.86018" lon="7.31325">
        <ele>305.5</ele>
        <time>2023-10-08T09:00:39Z</time>
      </trkpt>
      <trkpt lat="48.8602" lon="7.31323">
        <ele>305.3</ele>
        <time>2023-10-08T09:00:40Z</time>
      </trkpt>
      <trkpt lat="48.86033" lon="7.31342">
        <ele>308.4</ele>
        <time>2023-10-08T09:00:52Z</time>
      </trkpt>
      <trkpt lat="48.8604" lon="7.31367">
        <ele>312.4</ele>
        <time>2023-10-08T09:01:00Z</time>
      </trkpt>
      <trkpt lat="48.8604" lon="7.31398">
        <ele>317.7</ele>
        <time>2023-10-08T09:01:09Z</time>
      </trkpt>
      <trkpt lat="48.86043" lon="7.31425">
        <ele>321.3</ele>
        <time>2023-10-08T09:01:19Z</time>
      </trkpt>
      <trkpt lat="48.86057" lon="7.31446">
        <ele>323.6</ele>
        <time>2023-10-08T09:01:27Z</time>
      </trkpt>
      <trkpt lat="48.86071" lon="7.31467">
        <ele>325.9</ele>
        <time>2023-10-08T09:01:34Z</time>
      </trkpt>
      <trkpt lat="48.86084" lon="7.31487">
        <ele>327.7</ele>
        <time>2023-10-08T09:01:40Z</time>
      </trkpt>
      <trkpt lat="48.86097" lon="7.3151">
        <ele>329.2</ele>
        <time>2023-10-08T09:01:46Z</time>
      </trkpt>
      <trkpt lat="48.8611" lon="7.31534">
        <ele>330.6</ele>
        <time>2023-10-08T09:01:52Z</time>
      </trkpt>
      <trkpt lat="48.86121" lon="7.3156">
        <ele>331.5</ele>
        <time>2023-10-08T09:01:58Z</time>
      </trkpt>
      <trkpt lat="48.86135" lon="7.31582">
        <ele>332.4</ele>
        <time>2023-10-08T09:02:04Z</time>
      </trkpt>
      <trkpt lat="48.86147" lon="7.31603">
        <ele>333.1</ele>
        <time>2023-10-08T09:02:09Z</time>
      </trkpt>
      <trkpt lat="48.86161" lon="7.31624">
        <ele>333.8</ele>
        <time>2023-10-08T09:02:14Z</time>
      </trkpt>
      <trkpt lat="48.86176" lon="7.31645">
        <ele>334.7</ele>
        <time>2023-10-08T09:02:19Z</time>
      </trkpt>
      <trkpt lat="48.86188" lon="7.31668">
        <ele>335.7</ele>
        <time>2023-10-08T09:02:24Z</time>
      </trkpt>
      <trkpt lat="48.86201" lon="7.31694">
        <ele>336.8</ele>
        <time>2023-10-08T09:02:30Z</time>
      </trkpt>
      <trkpt lat="48.86213" lon="7.31718">
        <ele>337.9</ele>
        <time>2023-10-08T09:02:36Z</time>
      </trkpt>
      <trkpt lat="48.86225" lon="7.31743">
        <ele>339</ele>
        <time>2023-10-08T09:02:42Z</time>
      </trkpt>
      <trkpt lat="48.86236" lon="7.31765">
        <ele>340</ele>
        <time>2023-10-08T09:02:47Z</time>
      </trkpt>
      <trkpt lat="48.86239" lon="7.31793">
        <ele>340.9</ele>
        <time>2023-10-08T09:02:52Z</time>
      </trkpt>
      <trkpt lat="48.86238" lon="7.31808">
        <ele>341.4</ele>
        <time>2023-10-08T09:02:55Z</time>
      </trkpt>
    </trkseg>
  </trk>
</gpx>